Time,TemperatureF,DewpointF,PressureIn,WindDirection,WindDirectionDegrees,WindSpeedMPH,WindSpeedGustMPH,Humidity,HourlyPrecipIn,Conditions,Clouds,dailyrainin,SoftwareType,DateUTC
2013-01-01 00:00:00,70.4,66.7,29.98,NE,51,6.0,-999.0,88,0.00,,,0.00,PyWeather,2013-01-01 10:00:00,
2013-01-01 00:01:00,70.3,66.6,29.98,NE,42,6.0,-999.0,88,0.00,,,0.00,PyWeather,2013-01-01 10:01:00,
2013-01-01 00:02:00,70.3,66.6,29.98,NE,42,6.0,-999.0,88,0.00,,,0.00,PyWeather,2013-01-01 10:02:00,
2013-01-01 00:03:00,70.4,66.7,29.98,NE,40,6.0,-999.0,88,0.00,,,0.00,PyWeather,2013-01-01 10:03:00,
2013-01-01 00:04:00,70.3,66.6,29.98,NE,46,6.0,-999.0,88,0.00,,,0.00,PyWeather,2013-01-01 10:04:00,
2013-01-01 00:05:00,70.4,66.7,29.98,NE,46,6.0,-999.0,88,0.00,,,0.00,PyWeather,2013-01-01 10:05:00,
2013-01-01 00:06:00,70.4,66.7,29.98,NE,42,6.0,-999.0,88,0.00,,,0.00,PyWeather,2013-01-01 10:06:00,
2013-01-01 00:08:00,70.4,66.7,29.98,NE,39,7.0,-999.0,88,0.00,,,0.00,PyWeather,2013-01-01 10:08:00,
2013-01-01 00:09:00,70.5,66.8,29.98,NE,37,6.0,-999.0,88,0.00,,,0.00,PyWeather,2013-01-01 10:09:00,
2013-01-01 00:11:00,70.7,67.0,29.98,NE,38,6.0,-999.0,88,0.00,,,0.00,PyWeather,2013-01-01 10:11:00,
2013-01-01 00:12:00,70.7,67.0,29.98,NE,38,6.0,-999.0,88,0.00,,,0.00,PyWeather,2013-01-01 10:12:00,
2013-01-01 00:13:00,70.3,66.6,29.98,NE,43,6.0,-999.0,88,0.00,,,0.00,PyWeather,2013-01-01 10:13:00,
2013-01-01 00:14:00,70.8,67.1,29.98,NNE,32,6.0,-999.0,88,0.00,,,0.00,PyWeather,2013-01-01 10:14:00,
2013-01-01 00:15:00,70.8,67.1,29.98,NE,42,6.0,-999.0,88,0.00,,,0.00,PyWeather,2013-01-01 10:15:00,
2013-01-01 00:16:00,70.9,67.2,29.98,NE,42,6.0,-999.0,88,0.00,,,0.00,PyWeather,2013-01-01 10:16:00,
2013-01-01 00:17:00,70.9,67.2,29.98,NE,44,6.0,-999.0,88,0.00,,,0.00,PyWeather,2013-01-01 10:17:00,
2013-01-01 00:18:00,70.9,67.2,29.98,NE,40,6.0,-999.0,88,0.00,,,0.00,PyWeather,2013-01-01 10:18:00,
2013-01-01 00:19:00,70.4,66.7,29.98,NE,45,6.0,-999.0,88,0.00,,,0.00,PyWeather,2013-01-01 10:19:00,
2013-01-01 00:20:00,70.8,67.1,29.98,NE,41,6.0,-999.0,88,0.00,,,0.00,PyWeather,2013-01-01 10:20:00,
2013-01-01 00:21:00,70.8,67.1,29.98,NE,41,6.0,-999.0,88,0.00,,,0.00,PyWeather,2013-01-01 10:21:00,
2013-01-01 00:24:00,70.6,66.9,29.98,NE,39,6.0,-999.0,88,0.00,,,0.00,PyWeather,2013-01-01 10:24:00,
2013-01-01 00:29:00,70.8,67.1,29.98,NE,42,6.0,-999.0,88,0.00,,,0.00,PyWeather,2013-01-01 10:29:00,
2013-01-01 00:31:00,70.8,67.4,29.98,NE,36,6.0,-999.0,89,0.00,,,0.00,PyWeather,2013-01-01 10:31:00,
2013-01-01 00:32:00,70.8,67.4,29.98,NNE,32,6.0,-999.0,89,0.00,,,0.00,PyWeather,2013-01-01 10:32:00,
2013-01-01 00:33:00,70.7,67.0,29.98,NE,44,6.0,-999.0,88,0.00,,,0.00,PyWeather,2013-01-01 10:33:00,
2013-01-01 00:34:00,70.8,67.1,29.98,NE,38,6.0,-999.0,88,0.00,,,0.00,PyWeather,2013-01-01 10:34:00,
2013-01-01 00:35:00,70.6,66.9,29.98,NE,38,6.0,-999.0,88,0.00,,,0.00,PyWeather,2013-01-01 10:35:00,
2013-01-01 00:37:00,70.5,66.8,29.98,NE,46,6.0,-999.0,88,0.00,,,0.00,PyWeather,2013-01-01 10:37:00,
2013-01-01 00:38:00,70.4,66.7,29.98,NE,37,7.0,-999.0,88,0.00,,,0.00,PyWeather,2013-01-01 10:38:00,
2013-01-01 00:39:00,70.7,67.0,29.98,NE,42,6.0,-999.0,88,0.00,,,0.00,PyWeather,2013-01-01 10:39:00,
2013-01-01 00:40:00,70.2,66.5,29.98,NE,43,7.0,-999.0,88,0.00,,,0.00,PyWeather,2013-01-01 10:40:00,
2013-01-01 00:41:00,70.1,66.4,29.98,NE,44,7.0,-999.0,88,0.00,,,0.00,PyWeather,2013-01-01 10:41:00,
2013-01-01 00:42:00,69.9,66.2,29.98,NE,34,7.0,-999.0,88,0.00,,,0.00,PyWeather,2013-01-01 10:42:00,
2013-01-01 00:43:00,69.9,66.2,29.98,NE,38,7.0,-999.0,88,0.00,,,0.00,PyWeather,2013-01-01 10:43:00,
2013-01-01 00:44:00,70.7,67.3,29.98,NE,34,6.0,-999.0,89,0.00,,,0.00,PyWeather,2013-01-01 10:44:00,
2013-01-01 00:45:00,69.6,65.9,29.98,ENE,60,8.0,-999.0,88,0.00,,,0.00,PyWeather,2013-01-01 10:45:00,
2013-01-01 00:46:00,69.6,65.9,29.98,NE,45,8.0,-999.0,88,0.00,,,0.00,PyWeather,2013-01-01 10:46:00,
2013-01-01 00:47:00,69.5,65.8,29.98,NE,53,8.0,-999.0,88,0.00,,,0.00,PyWeather,2013-01-01 10:47:00,
2013-01-01 00:48:00,69.4,65.7,29.98,NE,56,8.0,-999.0,88,0.00,,,0.00,PyWeather,2013-01-01 10:48:00,
2013-01-01 00:49:00,70.6,66.9,29.98,NE,44,6.0,-999.0,88,0.00,,,0.00,PyWeather,2013-01-01 10:49:00,
2013-01-01 00:50:00,69.3,65.6,29.98,NE,44,7.0,-999.0,88,0.00,,,0.00,PyWeather,2013-01-01 10:50:00,
2013-01-01 00:51:00,69.3,65.6,29.98,NE,41,7.0,-999.0,88,0.00,,,0.00,PyWeather,2013-01-01 10:51:00,
2013-01-01 00:52:00,69.2,65.5,29.98,NE,38,7.0,-999.0,88,0.00,,,0.00,PyWeather,2013-01-01 10:52:00,
2013-01-01 00:53:00,69.2,65.5,29.98,ENE,65,7.0,-999.0,88,0.00,,,0.00,PyWeather,2013-01-01 10:53:00,
2013-01-01 00:55:00,70.1,66.4,29.98,NE,36,7.0,-999.0,88,0.00,,,0.00,PyWeather,2013-01-01 10:55:00,
2013-01-01 00:56:00,69.0,65.3,29.98,NNE,29,7.0,-999.0,88,0.00,,,0.00,PyWeather,2013-01-01 10:56:00,
2013-01-01 00:57:00,69.0,65.3,29.98,NE,34,7.0,-999.0,88,0.00,,,0.00,PyWeather,2013-01-01 10:57:00,
2013-01-01 00:58:00,69.0,65.3,29.98,NNE,25,7.0,-999.0,88,0.00,,,0.00,PyWeather,2013-01-01 10:58:00,
2013-01-01 00:59:00,69.0,65.3,29.98,NNE,28,7.0,-999.0,88,0.00,,,0.00,PyWeather,2013-01-01 10:59:00,
2013-01-01 01:00:00,69.6,65.9,29.98,NE,50,8.0,-999.0,88,0.00,,,0.00,PyWeather,2013-01-01 11:00:00,
2013-01-01 01:01:00,68.9,65.2,29.98,NE,35,6.0,-999.0,88,0.00,,,0.00,PyWeather,2013-01-01 11:01:00,
2013-01-01 01:02:00,68.8,65.1,29.98,NNE,29,6.0,-999.0,88,0.00,,,0.00,PyWeather,2013-01-01 11:02:00,
2013-01-01 01:03:00,68.8,65.1,29.98,NNE,31,6.0,-999.0,88,0.00,,,0.00,PyWeather,2013-01-01 11:03:00,
2013-01-01 01:05:00,69.3,65.6,29.98,NE,44,7.0,-999.0,88,0.00,,,0.00,PyWeather,2013-01-01 11:05:00,
2013-01-01 01:10:00,69.1,65.4,29.98,NNE,24,7.0,-999.0,88,0.00,,,0.00,PyWeather,2013-01-01 11:10:00,
2013-01-01 01:11:00,68.7,65.0,29.98,NNE,28,5.0,-999.0,88,0.00,,,0.00,PyWeather,2013-01-01 11:11:00,
2013-01-01 01:13:00,68.6,64.9,29.97,NNE,28,5.0,-999.0,88,0.00,,,0.00,PyWeather,2013-01-01 11:13:00,
2013-01-01 01:14:00,68.6,64.9,29.97,NNE,28,5.0,-999.0,88,0.00,,,0.00,PyWeather,2013-01-01 11:14:00,
2013-01-01 01:15:00,68.9,65.2,29.98,NNE,33,6.0,-999.0,88,0.00,,,0.00,PyWeather,2013-01-01 11:15:00,
2013-01-01 01:16:00,68.6,65.2,29.97,NNE,22,4.0,-999.0,89,0.00,,,0.00,PyWeather,2013-01-01 11:16:00,
2013-01-01 01:17:00,68.5,65.1,29.97,NNE,24,4.0,-999.0,89,0.00,,,0.00,PyWeather,2013-01-01 11:17:00,
2013-01-01 01:18:00,68.5,65.1,29.97,NNE,22,4.0,-999.0,89,0.00,,,0.00,PyWeather,2013-01-01 11:18:00,
2013-01-01 01:19:00,68.5,65.1,29.97,NNE,24,4.0,-999.0,89,0.00,,,0.00,PyWeather,2013-01-01 11:19:00,
2013-01-01 01:20:00,68.6,64.9,29.97,NE,45,5.0,-999.0,88,0.00,,,0.00,PyWeather,2013-01-01 11:20:00,
2013-01-01 01:21:00,68.4,65.0,29.97,NNE,26,5.0,-999.0,89,0.00,,,0.00,PyWeather,2013-01-01 11:21:00,
2013-01-01 01:22:00,68.4,65.0,29.97,NNE,17,5.0,-999.0,89,0.00,,,0.00,PyWeather,2013-01-01 11:22:00,
2013-01-01 01:23:00,68.4,65.0,29.97,NNE,24,5.0,-999.0,89,0.00,,,0.00,PyWeather,2013-01-01 11:23:00,
2013-01-01 01:24:00,68.3,64.9,29.97,NNE,30,5.0,-999.0,89,0.00,,,0.00,PyWeather,2013-01-01 11:24:00,
2013-01-01 01:25:00,68.3,64.9,29.97,NNE,23,6.0,-999.0,89,0.00,,,0.00,PyWeather,2013-01-01 11:25:00,
2013-01-01 01:26:00,68.7,65.0,29.98,NNE,28,5.0,-999.0,88,0.00,,,0.00,PyWeather,2013-01-01 11:26:00,
2013-01-01 01:28:00,68.1,64.7,29.97,NE,36,6.0,-999.0,89,0.00,,,0.00,PyWeather,2013-01-01 11:28:00,
2013-01-01 01:29:00,68.1,64.7,29.97,NNE,18,6.0,-999.0,89,0.00,,,0.00,PyWeather,2013-01-01 11:29:00,
2013-01-01 01:31:00,68.5,65.1,29.97,NNE,17,4.0,-999.0,89,0.00,,,0.00,PyWeather,2013-01-01 11:31:00,
2013-01-01 01:32:00,68.1,64.7,29.97,NNE,28,6.0,-999.0,89,0.00,,,0.00,PyWeather,2013-01-01 11:32:00,
2013-01-01 01:34:00,68.1,64.7,29.96,NNE,19,6.0,-999.0,89,0.00,,,0.00,PyWeather,2013-01-01 11:34:00,
2013-01-01 01:35:00,68.1,64.7,29.96,NNE,24,6.0,-999.0,89,0.00,,,0.00,PyWeather,2013-01-01 11:35:00,
2013-01-01 01:36:00,68.1,64.7,29.96,NNE,26,6.0,-999.0,89,0.00,,,0.00,PyWeather,2013-01-01 11:36:00,
2013-01-01 01:37:00,68.4,65.0,29.97,NNE,18,5.0,-999.0,89,0.00,,,0.00,PyWeather,2013-01-01 11:37:00,
2013-01-01 01:38:00,68.1,64.7,29.96,NNE,31,6.0,-999.0,89,0.00,,,0.00,PyWeather,2013-01-01 11:38:00,
2013-01-01 01:39:00,68.1,65.0,29.96,NNE,19,7.0,-999.0,90,0.00,,,0.00,PyWeather,2013-01-01 11:39:00,
2013-01-01 01:40:00,68.1,65.0,29.96,NNE,24,7.0,-999.0,90,0.00,,,0.00,PyWeather,2013-01-01 11:40:00,
2013-01-01 01:41:00,68.2,65.1,29.96,NNE,32,7.0,-999.0,90,0.00,,,0.00,PyWeather,2013-01-01 11:41:00,
2013-01-01 01:42:00,68.1,64.7,29.97,NNE,26,6.0,-999.0,89,0.00,,,0.00,PyWeather,2013-01-01 11:42:00,
2013-01-01 01:43:00,68.3,65.2,29.96,NNE,26,7.0,-999.0,90,0.00,,,0.00,PyWeather,2013-01-01 11:43:00,
2013-01-01 01:44:00,68.3,65.2,29.96,NNE,22,7.0,-999.0,90,0.00,,,0.00,PyWeather,2013-01-01 11:44:00,
2013-01-01 01:45:00,68.3,65.2,29.96,NNE,17,7.0,-999.0,90,0.00,,,0.00,PyWeather,2013-01-01 11:45:00,
2013-01-01 01:46:00,68.3,65.2,29.96,NNE,13,7.0,-999.0,90,0.00,,,0.00,PyWeather,2013-01-01 11:46:00,
2013-01-01 01:47:00,68.1,64.7,29.96,NNE,22,6.0,-999.0,89,0.00,,,0.00,PyWeather,2013-01-01 11:47:00,
2013-01-01 01:48:00,68.3,65.2,29.96,NNE,21,7.0,-999.0,90,0.00,,,0.00,PyWeather,2013-01-01 11:48:00,
2013-01-01 01:49:00,68.3,65.2,29.96,North,9,7.0,-999.0,90,0.00,,,0.00,PyWeather,2013-01-01 11:49:00,
2013-01-01 01:50:00,68.3,65.2,29.96,NNE,17,7.0,-999.0,90,0.00,,,0.00,PyWeather,2013-01-01 11:50:00,
2013-01-01 01:51:00,68.3,65.2,29.96,NNE,26,7.0,-999.0,90,0.00,,,0.00,PyWeather,2013-01-01 11:51:00,
2013-01-01 01:52:00,68.1,64.7,29.96,NNE,16,7.0,-999.0,89,0.00,,,0.00,PyWeather,2013-01-01 11:52:00,
2013-01-01 01:54:00,68.5,65.4,29.96,North,9,7.0,-999.0,90,0.00,,,0.00,PyWeather,2013-01-01 11:54:00,
2013-01-01 01:55:00,68.5,65.4,29.96,NNE,27,7.0,-999.0,90,0.00,,,0.00,PyWeather,2013-01-01 11:55:00,
2013-01-01 01:56:00,68.5,65.4,29.96,North,5,7.0,-999.0,90,0.00,,,0.00,PyWeather,2013-01-01 11:56:00,
2013-01-01 01:57:00,68.3,65.2,29.96,NE,34,7.0,-999.0,90,0.00,,,0.00,PyWeather,2013-01-01 11:57:00,
2013-01-01 01:58:00,68.6,65.5,29.96,NNE,15,7.0,-999.0,90,0.00,,,0.00,PyWeather,2013-01-01 11:58:00,
2013-01-01 01:59:00,68.6,65.5,29.95,North,5,7.0,-999.0,90,0.00,,,0.00,PyWeather,2013-01-01 11:59:00,
2013-01-01 02:00:00,68.7,65.6,29.95,North,9,7.0,-999.0,90,0.00,,,0.00,PyWeather,2013-01-01 12:00:00,
2013-01-01 02:01:00,68.8,65.7,29.95,North,360,7.0,-999.0,90,0.00,,,0.00,PyWeather,2013-01-01 12:01:00,
2013-01-01 02:02:00,68.8,65.7,29.95,North,11,7.0,-999.0,90,0.00,,,0.00,PyWeather,2013-01-01 12:02:00,
2013-01-01 02:03:00,68.3,65.2,29.96,NNE,17,7.0,-999.0,90,0.00,,,0.00,PyWeather,2013-01-01 12:03:00,
2013-01-01 02:08:00,68.5,65.4,29.96,NNE,17,7.0,-999.0,90,0.00,,,0.00,PyWeather,2013-01-01 12:08:00,
2013-01-01 02:13:00,68.7,65.6,29.95,North,5,7.0,-999.0,90,0.00,,,0.00,PyWeather,2013-01-01 12:13:00,
2013-01-01 02:14:00,69.6,66.5,29.95,North,360,8.0,-999.0,90,0.00,,,0.00,PyWeather,2013-01-01 12:14:00,
2013-01-01 02:15:00,69.7,66.6,29.95,North,360,8.0,-999.0,90,0.00,,,0.00,PyWeather,2013-01-01 12:15:00,
2013-01-01 02:16:00,69.7,66.6,29.95,North,355,8.0,-999.0,90,0.00,,,0.00,PyWeather,2013-01-01 12:16:00,
2013-01-01 02:17:00,69.8,66.7,29.95,North,9,8.0,-999.0,90,0.00,,,0.00,PyWeather,2013-01-01 12:17:00,
2013-01-01 02:18:00,69.0,66.2,29.95,North,355,7.0,-999.0,91,0.00,,,0.00,PyWeather,2013-01-01 12:18:00,
2013-01-01 02:19:00,69.8,67.0,29.94,North,360,8.0,-999.0,91,0.00,,,0.00,PyWeather,2013-01-01 12:19:00,
2013-01-01 02:20:00,69.9,66.8,29.94,North,355,8.0,-999.0,90,0.00,,,0.00,PyWeather,2013-01-01 12:20:00,
2013-01-01 02:21:00,69.9,67.1,29.95,North,9,8.0,-999.0,91,0.00,,,0.00,PyWeather,2013-01-01 12:21:00,
2013-01-01 02:22:00,69.9,67.1,29.95,NNE,15,8.0,-999.0,91,0.00,,,0.00,PyWeather,2013-01-01 12:22:00,
2013-01-01 02:23:00,69.4,66.6,29.95,NNE,19,8.0,-999.0,91,0.00,,,0.00,PyWeather,2013-01-01 12:23:00,
2013-01-01 02:24:00,70.0,67.2,29.95,North,9,8.0,-999.0,91,0.00,,,0.00,PyWeather,2013-01-01 12:24:00,
2013-01-01 02:26:00,70.1,67.3,29.95,NNE,20,8.0,-999.0,91,0.00,,,0.00,PyWeather,2013-01-01 12:26:00,
2013-01-01 02:27:00,70.1,67.3,29.95,NNE,17,8.0,-999.0,91,0.00,,,0.00,PyWeather,2013-01-01 12:27:00,
2013-01-01 02:28:00,70.1,67.0,29.95,North,9,8.0,-999.0,90,0.00,,,0.00,PyWeather,2013-01-01 12:28:00,
2013-01-01 02:29:00,69.7,66.6,29.95,North,9,8.0,-999.0,90,0.00,,,0.00,PyWeather,2013-01-01 12:29:00,
2013-01-01 02:34:00,69.9,67.1,29.94,North,360,8.0,-999.0,91,0.00,,,0.00,PyWeather,2013-01-01 12:34:00,
2013-01-01 02:35:00,70.4,67.3,29.95,NNW,348,8.0,-999.0,90,0.00,,,0.00,PyWeather,2013-01-01 12:35:00,
2013-01-01 02:38:00,70.6,67.5,29.95,North,360,9.0,-999.0,90,0.00,,,0.00,PyWeather,2013-01-01 12:38:00,
2013-01-01 02:39:00,70.1,67.3,29.95,North,360,8.0,-999.0,91,0.00,,,0.00,PyWeather,2013-01-01 12:39:00,
2013-01-01 02:40:00,70.6,67.5,29.95,North,360,9.0,-999.0,90,0.00,,,0.00,PyWeather,2013-01-01 12:40:00,
2013-01-01 02:41:00,70.6,67.5,29.95,North,351,9.0,-999.0,90,0.00,,,0.00,PyWeather,2013-01-01 12:41:00,
2013-01-01 02:42:00,70.6,67.5,29.95,North,351,9.0,-999.0,90,0.00,,,0.00,PyWeather,2013-01-01 12:42:00,
2013-01-01 02:44:00,70.2,67.1,29.95,North,360,7.0,-999.0,90,0.00,,,0.00,PyWeather,2013-01-01 12:44:00,
2013-01-01 02:46:00,70.8,67.7,29.95,NNW,347,10.0,-999.0,90,0.00,,,0.00,PyWeather,2013-01-01 12:46:00,
2013-01-01 02:47:00,70.8,67.7,29.95,North,5,9.0,-999.0,90,0.00,,,0.00,PyWeather,2013-01-01 12:47:00,
2013-01-01 02:50:00,70.5,67.4,29.95,North,5,8.0,-999.0,90,0.00,,,0.00,PyWeather,2013-01-01 12:50:00,
2013-01-01 02:53:00,70.9,67.8,29.95,North,5,9.0,-999.0,90,0.00,,,0.00,PyWeather,2013-01-01 12:53:00,
2013-01-01 02:55:00,70.6,67.5,29.95,North,350,9.0,-999.0,90,0.00,,,0.00,PyWeather,2013-01-01 12:55:00,
2013-01-01 02:58:00,70.9,67.8,29.95,North,351,9.0,-999.0,90,0.00,,,0.00,PyWeather,2013-01-01 12:58:00,
2013-01-01 02:59:00,70.9,67.8,29.95,North,355,10.0,-999.0,90,0.00,,,0.00,PyWeather,2013-01-01 12:59:00,
2013-01-01 03:00:00,70.8,67.7,29.95,North,5,9.0,-999.0,90,0.00,,,0.00,PyWeather,2013-01-01 13:00:00,
2013-01-01 03:01:00,71.0,67.9,29.95,North,9,10.0,-999.0,90,0.00,,,0.00,PyWeather,2013-01-01 13:01:00,
2013-01-01 03:05:00,70.9,67.8,29.95,NNE,14,9.0,-999.0,90,0.00,,,0.00,PyWeather,2013-01-01 13:05:00,
2013-01-01 03:10:00,71.0,67.9,29.95,NNW,348,9.0,-999.0,90,0.00,,,0.00,PyWeather,2013-01-01 13:10:00,
2013-01-01 03:15:00,71.0,67.9,29.95,NNW,348,10.0,-999.0,90,0.00,,,0.00,PyWeather,2013-01-01 13:15:00,
2013-01-01 03:20:00,71.1,67.7,29.96,NNW,335,11.0,-999.0,89,0.00,,,0.00,PyWeather,2013-01-01 13:20:00,
2013-01-01 03:25:00,71.0,67.6,29.95,NNW,344,12.0,-999.0,89,0.00,,,0.00,PyWeather,2013-01-01 13:25:00,
2013-01-01 03:30:00,71.2,67.8,29.96,North,355,12.0,-999.0,89,0.00,,,0.00,PyWeather,2013-01-01 13:30:00,
2013-01-01 03:35:00,71.2,67.8,29.96,North,9,11.0,-999.0,89,0.00,,,0.00,PyWeather,2013-01-01 13:35:00,
2013-01-01 03:40:00,71.2,67.5,29.96,NNE,12,10.0,-999.0,88,0.00,,,0.00,PyWeather,2013-01-01 13:40:00,
2013-01-01 03:45:00,71.0,67.3,29.96,NNE,23,9.0,-999.0,88,0.00,,,0.00,PyWeather,2013-01-01 13:45:00,
2013-01-01 03:50:00,70.8,67.1,29.96,NNE,13,8.0,-999.0,88,0.00,,,0.00,PyWeather,2013-01-01 13:50:00,
2013-01-01 03:55:00,70.9,67.2,29.96,NE,42,7.0,-999.0,88,0.00,,,0.00,PyWeather,2013-01-01 13:55:00,
2013-01-01 04:00:00,70.8,67.1,29.96,North,10,7.0,-999.0,88,0.00,,,0.00,PyWeather,2013-01-01 14:00:00,
2013-01-01 04:05:00,70.8,67.1,29.96,NNE,27,7.0,-999.0,88,0.00,,,0.00,PyWeather,2013-01-01 14:05:00,
2013-01-01 04:10:00,70.9,67.2,29.96,NNE,13,8.0,-999.0,88,0.00,,,0.00,PyWeather,2013-01-01 14:10:00,
2013-01-01 04:11:00,70.7,67.0,29.96,North,11,6.0,-999.0,88,0.00,,,0.00,PyWeather,2013-01-01 14:11:00,
2013-01-01 04:12:00,70.6,66.9,29.96,NNE,24,6.0,-999.0,88,0.00,,,0.00,PyWeather,2013-01-01 14:12:00,
2013-01-01 04:14:00,70.6,66.9,29.96,North,5,6.0,-999.0,88,0.00,,,0.00,PyWeather,2013-01-01 14:14:00,
2013-01-01 04:16:00,70.8,67.1,29.96,NNE,24,7.0,-999.0,88,0.00,,,0.00,PyWeather,2013-01-01 14:16:00,
2013-01-01 04:17:00,70.6,66.9,29.96,NNE,22,7.0,-999.0,88,0.00,,,0.00,PyWeather,2013-01-01 14:17:00,
2013-01-01 04:20:00,70.5,66.8,29.96,NNE,17,7.0,-999.0,88,0.00,,,0.00,PyWeather,2013-01-01 14:20:00,
2013-01-01 04:21:00,70.7,67.0,29.96,NNE,27,7.0,-999.0,88,0.00,,,0.00,PyWeather,2013-01-01 14:21:00,
2013-01-01 04:24:00,70.5,66.8,29.96,NNE,17,7.0,-999.0,88,0.00,,,0.00,PyWeather,2013-01-01 14:24:00,
2013-01-01 04:25:00,70.4,66.7,29.97,North,9,7.0,-999.0,88,0.00,,,0.00,PyWeather,2013-01-01 14:25:00,
2013-01-01 04:26:00,70.6,66.9,29.96,NNE,25,6.0,-999.0,88,0.00,,,0.00,PyWeather,2013-01-01 14:26:00,
2013-01-01 04:27:00,70.4,66.7,29.97,NNE,16,7.0,-999.0,88,0.00,,,0.00,PyWeather,2013-01-01 14:27:00,
2013-01-01 04:29:00,70.4,66.7,29.96,North,360,7.0,-999.0,88,0.00,,,0.00,PyWeather,2013-01-01 14:29:00,
2013-01-01 04:30:00,70.4,66.7,29.96,North,360,6.0,-999.0,88,0.00,,,0.00,PyWeather,2013-01-01 14:30:00,
2013-01-01 04:31:00,70.6,66.9,29.96,North,10,7.0,-999.0,88,0.00,,,0.00,PyWeather,2013-01-01 14:31:00,
2013-01-01 04:32:00,70.4,66.7,29.97,North,360,7.0,-999.0,88,0.00,,,0.00,PyWeather,2013-01-01 14:32:00,
2013-01-01 04:34:00,70.5,66.8,29.96,North,5,7.0,-999.0,88,0.00,,,0.00,PyWeather,2013-01-01 14:34:00,
2013-01-01 04:36:00,70.5,66.8,29.96,NNE,15,7.0,-999.0,88,0.00,,,0.00,PyWeather,2013-01-01 14:36:00,
2013-01-01 04:41:00,70.4,66.7,29.97,NNE,13,7.0,-999.0,88,0.00,,,0.00,PyWeather,2013-01-01 14:41:00,
2013-01-01 04:43:00,70.8,67.1,29.97,North,360,8.0,-999.0,88,0.00,,,0.00,PyWeather,2013-01-01 14:43:00,
2013-01-01 04:44:00,70.8,67.1,29.97,North,360,8.0,-999.0,88,0.00,,,0.00,PyWeather,2013-01-01 14:44:00,
2013-01-01 04:45:00,70.8,67.1,29.97,North,360,8.0,-999.0,88,0.00,,,0.00,PyWeather,2013-01-01 14:45:00,
2013-01-01 04:46:00,70.4,66.7,29.97,North,355,7.0,-999.0,88,0.00,,,0.00,PyWeather,2013-01-01 14:46:00,
2013-01-01 04:47:00,70.8,67.1,29.97,North,350,8.0,-999.0,88,0.00,,,0.00,PyWeather,2013-01-01 14:47:00,
2013-01-01 04:48:00,70.8,67.1,29.98,North,355,8.0,-999.0,88,0.00,,,0.00,PyWeather,2013-01-01 14:48:00,
2013-01-01 04:49:00,70.8,67.1,29.98,North,9,8.0,-999.0,88,0.00,,,0.00,PyWeather,2013-01-01 14:49:00,
2013-01-01 04:50:00,70.8,67.1,29.98,North,360,8.0,-999.0,88,0.00,,,0.00,PyWeather,2013-01-01 14:50:00,
2013-01-01 04:51:00,70.7,67.0,29.97,North,360,7.0,-999.0,88,0.00,,,0.00,PyWeather,2013-01-01 14:51:00,
2013-01-01 04:53:00,70.8,67.1,29.97,North,355,8.0,-999.0,88,0.00,,,0.00,PyWeather,2013-01-01 14:53:00,
2013-01-01 04:54:00,70.8,67.1,29.97,North,355,8.0,-999.0,88,0.00,,,0.00,PyWeather,2013-01-01 14:54:00,
2013-01-01 04:56:00,70.8,67.1,29.97,North,355,8.0,-999.0,88,0.00,,,0.00,PyWeather,2013-01-01 14:56:00,
2013-01-01 04:57:00,70.8,67.1,29.97,NNW,346,8.0,-999.0,88,0.00,,,0.00,PyWeather,2013-01-01 14:57:00,
2013-01-01 04:58:00,70.8,67.4,29.97,North,9,8.0,-999.0,89,0.00,,,0.00,PyWeather,2013-01-01 14:58:00,
2013-01-01 05:00:00,70.7,67.3,29.97,North,5,8.0,-999.0,89,0.00,,,0.00,PyWeather,2013-01-01 15:00:00,
2013-01-01 05:02:00,70.8,67.1,29.98,North,355,8.0,-999.0,88,0.00,,,0.00,PyWeather,2013-01-01 15:02:00,
2013-01-01 05:07:00,70.8,67.4,29.97,North,360,8.0,-999.0,89,0.00,,,0.00,PyWeather,2013-01-01 15:07:00,
2013-01-01 05:12:00,70.8,67.4,29.97,North,11,8.0,-999.0,89,0.00,,,0.00,PyWeather,2013-01-01 15:12:00,
2013-01-01 05:13:00,70.5,67.1,29.98,North,5,8.0,-999.0,89,0.00,,,0.00,PyWeather,2013-01-01 15:13:00,
2013-01-01 05:14:00,70.5,67.1,29.98,North,350,8.0,-999.0,89,0.00,,,0.00,PyWeather,2013-01-01 15:14:00,
2013-01-01 05:15:00,70.4,67.0,29.98,North,360,8.0,-999.0,89,0.00,,,0.00,PyWeather,2013-01-01 15:15:00,
2013-01-01 05:16:00,70.4,67.0,29.98,North,360,8.0,-999.0,89,0.00,,,0.00,PyWeather,2013-01-01 15:16:00,
2013-01-01 05:17:00,70.7,67.3,29.97,North,355,8.0,-999.0,89,0.00,,,0.00,PyWeather,2013-01-01 15:17:00,
2013-01-01 05:18:00,70.5,67.1,29.98,North,351,9.0,-999.0,89,0.00,,,0.00,PyWeather,2013-01-01 15:18:00,
2013-01-01 05:19:00,70.5,67.1,29.98,North,355,9.0,-999.0,89,0.00,,,0.00,PyWeather,2013-01-01 15:19:00,
2013-01-01 05:21:00,70.5,67.1,29.98,North,10,9.0,-999.0,89,0.00,,,0.00,PyWeather,2013-01-01 15:21:00,
2013-01-01 05:22:00,70.6,67.2,29.98,North,5,8.0,-999.0,89,0.00,,,0.00,PyWeather,2013-01-01 15:22:00,
2013-01-01 05:23:00,70.5,67.1,29.98,NNW,348,9.0,-999.0,89,0.00,,,0.00,PyWeather,2013-01-01 15:23:00,
2013-01-01 05:24:00,70.5,67.1,29.98,North,360,9.0,-999.0,89,0.00,,,0.00,PyWeather,2013-01-01 15:24:00,
2013-01-01 05:25:00,70.6,67.2,29.98,North,9,9.0,-999.0,89,0.00,,,0.00,PyWeather,2013-01-01 15:25:00,
2013-01-01 05:27:00,70.6,67.2,29.98,NNW,342,10.0,-999.0,89,0.00,,,0.00,PyWeather,2013-01-01 15:27:00,
2013-01-01 05:28:00,70.4,67.0,29.98,North,351,8.0,-999.0,89,0.00,,,0.00,PyWeather,2013-01-01 15:28:00,
2013-01-01 05:29:00,70.6,67.2,29.98,North,355,9.0,-999.0,89,0.00,,,0.00,PyWeather,2013-01-01 15:29:00,
2013-01-01 05:30:00,70.6,67.2,29.98,North,9,9.0,-999.0,89,0.00,,,0.00,PyWeather,2013-01-01 15:30:00,
2013-01-01 05:31:00,70.6,67.2,29.98,North,360,9.0,-999.0,89,0.00,,,0.00,PyWeather,2013-01-01 15:31:00,
2013-01-01 05:32:00,70.7,67.3,29.98,North,5,10.0,-999.0,89,0.00,,,0.00,PyWeather,2013-01-01 15:32:00,
2013-01-01 05:33:00,70.5,67.1,29.98,North,360,9.0,-999.0,89,0.00,,,0.00,PyWeather,2013-01-01 15:33:00,
2013-01-01 05:35:00,70.7,67.3,29.98,North,360,9.0,-999.0,89,0.00,,,0.00,PyWeather,2013-01-01 15:35:00,
2013-01-01 05:36:00,70.7,67.3,29.98,North,355,9.0,-999.0,89,0.00,,,0.00,PyWeather,2013-01-01 15:36:00,
2013-01-01 05:37:00,70.7,67.3,29.98,North,11,9.0,-999.0,89,0.00,,,0.00,PyWeather,2013-01-01 15:37:00,
2013-01-01 05:38:00,70.6,67.2,29.98,North,5,9.0,-999.0,89,0.00,,,0.00,PyWeather,2013-01-01 15:38:00,
2013-01-01 05:39:00,70.7,67.3,29.98,North,5,9.0,-999.0,89,0.00,,,0.00,PyWeather,2013-01-01 15:39:00,
2013-01-01 05:40:00,70.7,67.3,29.98,North,9,9.0,-999.0,89,0.00,,,0.00,PyWeather,2013-01-01 15:40:00,
2013-01-01 05:43:00,70.7,67.3,29.98,North,355,8.0,-999.0,89,0.00,,,0.00,PyWeather,2013-01-01 15:43:00,
2013-01-01 05:44:00,70.6,67.2,29.98,NNE,15,9.0,-999.0,89,0.00,,,0.00,PyWeather,2013-01-01 15:44:00,
2013-01-01 05:45:00,70.7,67.3,29.98,NNW,346,8.0,-999.0,89,0.00,,,0.00,PyWeather,2013-01-01 15:45:00,
2013-01-01 05:47:00,70.7,67.3,29.98,North,355,8.0,-999.0,89,0.00,,,0.00,PyWeather,2013-01-01 15:47:00,
2013-01-01 05:48:00,70.7,67.3,29.98,North,355,8.0,-999.0,89,0.00,,,0.00,PyWeather,2013-01-01 15:48:00,
2013-01-01 05:49:00,70.7,67.3,29.98,North,351,9.0,-999.0,89,0.00,,,0.00,PyWeather,2013-01-01 15:49:00,
2013-01-01 05:51:00,70.7,67.3,29.98,North,360,8.0,-999.0,89,0.00,,,0.00,PyWeather,2013-01-01 15:51:00,
2013-01-01 05:52:00,70.8,67.4,29.98,North,355,9.0,-999.0,89,0.00,,,0.00,PyWeather,2013-01-01 15:52:00,
2013-01-01 05:53:00,70.8,67.4,29.98,North,360,9.0,-999.0,89,0.00,,,0.00,PyWeather,2013-01-01 15:53:00,
2013-01-01 05:54:00,70.7,67.3,29.98,NNE,16,9.0,-999.0,89,0.00,,,0.00,PyWeather,2013-01-01 15:54:00,
2013-01-01 05:55:00,70.8,67.4,29.98,North,9,9.0,-999.0,89,0.00,,,0.00,PyWeather,2013-01-01 15:55:00,
2013-01-01 05:57:00,70.7,67.3,29.98,North,349,9.0,-999.0,89,0.00,,,0.00,PyWeather,2013-01-01 15:57:00,
2013-01-01 05:58:00,70.7,67.3,29.99,NNW,346,9.0,-999.0,89,0.00,,,0.00,PyWeather,2013-01-01 15:58:00,
2013-01-01 05:59:00,70.7,67.3,29.98,North,360,8.0,-999.0,89,0.00,,,0.00,PyWeather,2013-01-01 15:59:00,
2013-01-01 06:00:00,70.7,67.3,29.99,North,360,9.0,-999.0,89,0.00,,,0.00,PyWeather,2013-01-01 16:00:00,
2013-01-01 06:01:00,70.7,67.3,29.99,North,360,9.0,-999.0,89,0.00,,,0.00,PyWeather,2013-01-01 16:01:00,
2013-01-01 06:04:00,70.7,67.3,29.98,North,350,8.0,-999.0,89,0.00,,,0.00,PyWeather,2013-01-01 16:04:00,
2013-01-01 06:09:00,70.7,67.3,29.98,North,5,9.0,-999.0,89,0.00,,,0.00,PyWeather,2013-01-01 16:09:00,
2013-01-01 06:14:00,70.7,67.3,29.99,North,5,9.0,-999.0,89,0.00,,,0.00,PyWeather,2013-01-01 16:14:00,
2013-01-01 06:19:00,70.7,67.3,29.99,North,9,8.0,-999.0,89,0.00,,,0.00,PyWeather,2013-01-01 16:19:00,
2013-01-01 06:25:00,70.6,67.2,29.99,NNE,26,7.0,-999.0,89,0.00,,,0.00,PyWeather,2013-01-01 16:25:00,
2013-01-01 06:30:00,70.6,67.2,29.99,NNE,18,6.0,-999.0,89,0.00,,,0.00,PyWeather,2013-01-01 16:30:00,
2013-01-01 06:35:00,70.6,67.2,29.99,NNE,24,6.0,-999.0,89,0.00,,,0.00,PyWeather,2013-01-01 16:35:00,
2013-01-01 06:41:00,70.4,67.0,29.99,NE,41,6.0,-999.0,89,0.00,,,0.00,PyWeather,2013-01-01 16:41:00,
2013-01-01 06:46:00,70.0,66.6,29.99,NNE,32,5.0,-999.0,89,0.00,,,0.00,PyWeather,2013-01-01 16:46:00,
2013-01-01 06:48:00,70.0,66.6,29.99,NNE,13,7.0,-999.0,89,0.00,,,0.00,PyWeather,2013-01-01 16:48:00,
2013-01-01 06:49:00,70.0,66.9,29.99,North,5,7.0,-999.0,90,0.00,,,0.00,PyWeather,2013-01-01 16:49:00,
2013-01-01 06:50:00,70.0,66.6,29.99,North,360,7.0,-999.0,89,0.00,,,0.00,PyWeather,2013-01-01 16:50:00,
2013-01-01 06:51:00,69.9,66.8,29.99,North,5,6.0,-999.0,90,0.00,,,0.00,PyWeather,2013-01-01 16:51:00,
2013-01-01 06:54:00,70.1,66.7,29.99,North,9,8.0,-999.0,89,0.00,,,0.00,PyWeather,2013-01-01 16:54:00,
2013-01-01 06:55:00,70.1,66.7,29.99,North,360,8.0,-999.0,89,0.00,,,0.00,PyWeather,2013-01-01 16:55:00,
2013-01-01 06:56:00,70.1,67.0,29.99,North,9,6.0,-999.0,90,0.00,,,0.00,PyWeather,2013-01-01 16:56:00,
2013-01-01 07:00:00,70.2,66.8,29.99,North,355,9.0,-999.0,89,0.00,,,0.00,PyWeather,2013-01-01 17:00:00,
2013-01-01 07:01:00,70.0,66.6,29.99,North,5,7.0,-999.0,89,0.00,,,0.00,PyWeather,2013-01-01 17:01:00,
2013-01-01 07:02:00,70.2,66.8,29.99,North,360,9.0,-999.0,89,0.00,,,0.00,PyWeather,2013-01-01 17:02:00,
2013-01-01 07:03:00,70.3,66.9,29.99,North,360,9.0,-999.0,89,0.00,,,0.00,PyWeather,2013-01-01 17:03:00,
2013-01-01 07:04:00,70.3,66.9,29.99,North,355,9.0,-999.0,89,0.00,,,0.00,PyWeather,2013-01-01 17:04:00,
2013-01-01 07:05:00,70.3,66.9,29.99,North,355,9.0,-999.0,89,0.00,,,0.00,PyWeather,2013-01-01 17:05:00,
2013-01-01 07:06:00,70.1,66.7,29.99,North,9,8.0,-999.0,89,0.00,,,0.00,PyWeather,2013-01-01 17:06:00,
2013-01-01 07:07:00,70.4,67.0,29.99,North,5,9.0,-999.0,89,0.00,,,0.00,PyWeather,2013-01-01 17:07:00,
2013-01-01 07:10:00,70.5,67.1,29.99,North,355,10.0,-999.0,89,0.00,,,0.00,PyWeather,2013-01-01 17:10:00,
2013-01-01 07:11:00,70.1,66.7,29.99,North,11,9.0,-999.0,89,0.00,,,0.00,PyWeather,2013-01-01 17:11:00,
2013-01-01 07:12:00,70.6,67.2,29.99,North,360,10.0,-999.0,89,0.00,,,0.00,PyWeather,2013-01-01 17:12:00,
2013-01-01 07:14:00,70.7,67.0,29.99,North,355,10.0,-999.0,88,0.00,,,0.00,PyWeather,2013-01-01 17:14:00,
2013-01-01 07:15:00,70.8,67.1,29.99,North,355,10.0,-999.0,88,0.00,,,0.00,PyWeather,2013-01-01 17:15:00,
2013-01-01 07:16:00,70.3,66.9,29.99,North,360,9.0,-999.0,89,0.00,,,0.00,PyWeather,2013-01-01 17:16:00,
2013-01-01 07:18:00,70.9,67.2,29.99,North,355,11.0,-999.0,88,0.00,,,0.00,PyWeather,2013-01-01 17:18:00,
2013-01-01 07:20:00,71.0,67.6,29.99,North,355,11.0,-999.0,89,0.00,,,0.00,PyWeather,2013-01-01 17:20:00,
2013-01-01 07:21:00,70.4,67.0,29.99,North,5,9.0,-999.0,89,0.00,,,0.00,PyWeather,2013-01-01 17:21:00,
2013-01-01 07:22:00,71.1,67.7,29.99,North,355,11.0,-999.0,89,0.00,,,0.00,PyWeather,2013-01-01 17:22:00,
2013-01-01 07:24:00,71.2,67.8,29.99,NNW,348,11.0,-999.0,89,0.00,,,0.00,PyWeather,2013-01-01 17:24:00,
2013-01-01 07:25:00,71.2,67.5,29.99,North,360,11.0,-999.0,88,0.00,,,0.00,PyWeather,2013-01-01 17:25:00,
2013-01-01 07:26:00,70.7,67.0,29.99,North,350,10.0,-999.0,88,0.00,,,0.00,PyWeather,2013-01-01 17:26:00,
2013-01-01 07:28:00,71.2,67.5,29.99,North,350,11.0,-999.0,88,0.00,,,0.00,PyWeather,2013-01-01 17:28:00,
2013-01-01 07:30:00,71.2,67.8,30.00,NNW,340,10.0,-999.0,89,0.00,,,0.00,PyWeather,2013-01-01 17:30:00,
2013-01-01 07:31:00,70.9,67.2,29.99,North,360,10.0,-999.0,88,0.00,,,0.00,PyWeather,2013-01-01 17:31:00,
2013-01-01 07:33:00,71.3,67.9,30.00,NNW,347,10.0,-999.0,89,0.00,,,0.00,PyWeather,2013-01-01 17:33:00,
2013-01-01 07:34:00,71.3,67.9,30.00,North,355,10.0,-999.0,89,0.00,,,0.00,PyWeather,2013-01-01 17:34:00,
2013-01-01 07:35:00,71.3,67.6,30.00,North,5,10.0,-999.0,88,0.00,,,0.00,PyWeather,2013-01-01 17:35:00,
2013-01-01 07:36:00,71.1,67.7,29.99,North,360,11.0,-999.0,89,0.00,,,0.00,PyWeather,2013-01-01 17:36:00,
2013-01-01 07:40:00,71.4,67.7,30.00,North,360,11.0,-999.0,88,0.00,,,0.00,PyWeather,2013-01-01 17:40:00,
2013-01-01 07:41:00,71.2,67.5,29.99,North,5,11.0,-999.0,88,0.00,,,0.00,PyWeather,2013-01-01 17:41:00,
2013-01-01 07:43:00,71.4,67.7,30.00,NNW,348,11.0,-999.0,88,0.00,,,0.00,PyWeather,2013-01-01 17:43:00,
2013-01-01 07:45:00,71.4,67.7,30.00,NNW,342,11.0,-999.0,88,0.00,,,0.00,PyWeather,2013-01-01 17:45:00,
2013-01-01 07:46:00,71.2,67.5,30.00,North,355,10.0,-999.0,88,0.00,,,0.00,PyWeather,2013-01-01 17:46:00,
2013-01-01 07:48:00,71.5,67.8,30.00,North,360,11.0,-999.0,88,0.00,,,0.00,PyWeather,2013-01-01 17:48:00,
2013-01-01 07:49:00,71.5,67.8,30.00,North,351,11.0,-999.0,88,0.00,,,0.00,PyWeather,2013-01-01 17:49:00,
2013-01-01 07:50:00,71.5,67.8,30.00,North,9,11.0,-999.0,88,0.00,,,0.00,PyWeather,2013-01-01 17:50:00,
2013-01-01 07:51:00,71.3,67.6,30.00,North,11,11.0,-999.0,88,0.00,,,0.00,PyWeather,2013-01-01 17:51:00,
2013-01-01 07:53:00,71.6,67.9,30.00,NNE,17,11.0,-999.0,88,0.00,,,0.00,PyWeather,2013-01-01 17:53:00,
2013-01-01 07:54:00,71.7,68.0,30.00,North,9,11.0,-999.0,88,0.00,,,0.00,PyWeather,2013-01-01 17:54:00,
2013-01-01 07:55:00,71.8,68.1,30.00,North,5,10.0,-999.0,88,0.00,,,0.00,PyWeather,2013-01-01 17:55:00,
2013-01-01 07:56:00,71.4,67.7,30.00,NNW,347,11.0,-999.0,88,0.00,,,0.00,PyWeather,2013-01-01 17:56:00,
2013-01-01 07:58:00,72.0,68.3,30.00,North,360,10.0,-999.0,88,0.00,,,0.00,PyWeather,2013-01-01 17:58:00,
2013-01-01 07:59:00,72.0,68.3,30.00,North,5,10.0,-999.0,88,0.00,,,0.00,PyWeather,2013-01-01 17:59:00,
2013-01-01 08:01:00,71.5,67.8,30.00,North,355,11.0,-999.0,88,0.00,,,0.00,PyWeather,2013-01-01 18:01:00,
2013-01-01 08:07:00,71.6,67.9,30.00,NNW,348,11.0,-999.0,88,0.00,,,0.00,PyWeather,2013-01-01 18:07:00,
2013-01-01 08:12:00,71.9,68.2,30.00,North,360,10.0,-999.0,88,0.00,,,0.00,PyWeather,2013-01-01 18:12:00,
2013-01-01 08:17:00,72.3,68.5,30.01,NNE,28,10.0,-999.0,88,0.00,,,0.00,PyWeather,2013-01-01 18:17:00,
2013-01-01 08:22:00,72.6,68.5,30.01,NNE,14,8.0,-999.0,87,0.00,,,0.00,PyWeather,2013-01-01 18:22:00,
2013-01-01 08:27:00,72.6,68.2,30.01,North,9,9.0,-999.0,86,0.00,,,0.00,PyWeather,2013-01-01 18:27:00,
2013-01-01 08:32:00,72.7,68.0,30.01,North,351,9.0,17.0,85,0.00,,,0.00,PyWeather,2013-01-01 18:32:00,
2013-01-01 08:33:00,73.9,68.1,30.01,North,360,9.0,-999.0,82,0.00,,,0.00,PyWeather,2013-01-01 18:33:00,
2013-01-01 08:34:00,74.0,68.2,30.01,North,5,10.0,-999.0,82,0.00,,,0.00,PyWeather,2013-01-01 18:34:00,
2013-01-01 08:35:00,74.1,68.3,30.01,North,5,10.0,-999.0,82,0.00,,,0.00,PyWeather,2013-01-01 18:35:00,
2013-01-01 08:37:00,72.9,67.8,30.01,North,10,9.0,17.0,84,0.00,,,0.00,PyWeather,2013-01-01 18:37:00,
2013-01-01 08:39:00,74.3,68.2,30.01,North,360,10.0,-999.0,81,0.00,,,0.00,PyWeather,2013-01-01 18:39:00,
2013-01-01 08:40:00,74.4,68.3,30.01,North,360,10.0,-999.0,81,0.00,,,0.00,PyWeather,2013-01-01 18:40:00,
2013-01-01 08:41:00,74.5,68.0,30.01,North,5,10.0,-999.0,80,0.00,,,0.00,PyWeather,2013-01-01 18:41:00,
2013-01-01 08:42:00,73.4,68.0,30.01,North,355,9.0,-999.0,83,0.00,,,0.00,PyWeather,2013-01-01 18:42:00,
2013-01-01 08:43:00,74.5,68.0,30.01,North,9,11.0,-999.0,80,0.00,,,0.00,PyWeather,2013-01-01 18:43:00,
2013-01-01 08:44:00,74.6,68.1,30.01,North,5,11.0,-999.0,80,0.00,,,0.00,PyWeather,2013-01-01 18:44:00,
2013-01-01 08:45:00,74.7,68.2,30.01,NNW,344,11.0,-999.0,80,0.00,,,0.00,PyWeather,2013-01-01 18:45:00,
2013-01-01 08:46:00,74.8,68.3,30.01,North,360,11.0,-999.0,80,0.00,,,0.00,PyWeather,2013-01-01 18:46:00,
2013-01-01 08:47:00,73.9,68.1,30.01,North,10,9.0,-999.0,82,0.00,,,0.00,PyWeather,2013-01-01 18:47:00,
2013-01-01 08:48:00,75.1,68.3,30.01,North,355,12.0,-999.0,79,0.00,,,0.00,PyWeather,2013-01-01 18:48:00,
2013-01-01 08:49:00,75.1,68.3,30.01,North,351,12.0,-999.0,79,0.00,,,0.00,PyWeather,2013-01-01 18:49:00,
2013-01-01 08:50:00,75.1,68.3,30.01,North,355,13.0,-999.0,79,0.00,,,0.00,PyWeather,2013-01-01 18:50:00,
2013-01-01 08:51:00,75.1,68.6,30.01,North,349,13.0,-999.0,80,0.00,,,0.00,PyWeather,2013-01-01 18:51:00,
2013-01-01 08:52:00,74.3,68.2,30.01,NNW,348,10.0,-999.0,81,0.00,,,0.00,PyWeather,2013-01-01 18:52:00,
2013-01-01 08:53:00,75.1,68.3,30.01,North,9,13.0,-999.0,79,0.00,,,0.00,PyWeather,2013-01-01 18:53:00,
2013-01-01 08:55:00,75.2,68.3,30.01,North,360,13.0,-999.0,79,0.00,,,0.00,PyWeather,2013-01-01 18:55:00,
2013-01-01 08:56:00,75.2,68.7,30.01,North,5,14.0,-999.0,80,0.00,,,0.00,PyWeather,2013-01-01 18:56:00,
2013-01-01 08:58:00,74.6,68.1,30.01,North,11,11.0,-999.0,80,0.00,,,0.00,PyWeather,2013-01-01 18:58:00,
2013-01-01 08:59:00,75.4,68.9,30.01,North,360,14.0,-999.0,80,0.00,,,0.00,PyWeather,2013-01-01 18:59:00,
2013-01-01 09:00:00,75.4,68.9,30.01,North,355,14.0,-999.0,80,0.00,,,0.00,PyWeather,2013-01-01 19:00:00,
2013-01-01 09:01:00,75.4,68.9,30.01,North,5,14.0,-999.0,80,0.00,,,0.00,PyWeather,2013-01-01 19:01:00,
2013-01-01 09:03:00,75.1,68.3,30.01,North,355,13.0,-999.0,79,0.00,,,0.00,PyWeather,2013-01-01 19:03:00,
2013-01-01 09:04:00,75.5,68.6,30.01,North,360,14.0,-999.0,79,0.00,,,0.00,PyWeather,2013-01-01 19:04:00,
2013-01-01 09:09:00,75.2,68.7,30.01,North,351,14.0,-999.0,80,0.00,,,0.00,PyWeather,2013-01-01 19:09:00,
2013-01-01 09:14:00,75.4,68.9,30.01,NNW,343,14.0,-999.0,80,0.00,,,0.00,PyWeather,2013-01-01 19:14:00,
2013-01-01 09:17:00,76.3,68.7,30.01,North,10,15.0,-999.0,77,0.00,,,0.00,PyWeather,2013-01-01 19:17:00,
2013-01-01 09:19:00,75.6,68.7,30.01,NNW,341,14.0,22.0,79,0.00,,,0.00,PyWeather,2013-01-01 19:19:00,
2013-01-01 09:20:00,76.0,68.4,30.01,NNE,21,14.0,-999.0,77,0.00,,,0.00,PyWeather,2013-01-01 19:20:00,
2013-01-01 09:21:00,76.0,68.4,30.01,North,9,14.0,-999.0,77,0.00,,,0.00,PyWeather,2013-01-01 19:21:00,
2013-01-01 09:22:00,76.0,68.4,30.01,North,5,15.0,-999.0,77,0.00,,,0.00,PyWeather,2013-01-01 19:22:00,
2013-01-01 09:23:00,76.1,68.5,30.01,North,360,15.0,-999.0,77,0.00,,,0.00,PyWeather,2013-01-01 19:23:00,
2013-01-01 09:25:00,76.1,68.5,30.01,North,355,15.0,-999.0,77,0.00,,,0.00,PyWeather,2013-01-01 19:25:00,
2013-01-01 09:26:00,76.2,69.0,30.01,North,360,14.0,22.0,78,0.00,,,0.00,PyWeather,2013-01-01 19:26:00,
2013-01-01 09:27:00,76.4,68.4,30.01,North,351,16.0,22.0,76,0.00,,,0.00,PyWeather,2013-01-01 19:27:00,
2013-01-01 09:29:00,76.5,68.9,30.01,North,360,16.0,22.0,77,0.00,,,0.00,PyWeather,2013-01-01 19:29:00,
2013-01-01 09:30:00,76.6,69.0,30.01,North,355,16.0,22.0,77,0.00,,,0.00,PyWeather,2013-01-01 19:30:00,
2013-01-01 09:31:00,76.2,68.6,30.01,North,5,15.0,-999.0,77,0.00,,,0.00,PyWeather,2013-01-01 19:31:00,
2013-01-01 09:34:00,76.7,68.3,30.01,NNE,12,17.0,22.0,75,0.00,,,0.00,PyWeather,2013-01-01 19:34:00,
2013-01-01 09:35:00,76.6,68.2,30.01,North,9,17.0,22.0,75,0.00,,,0.00,PyWeather,2013-01-01 19:35:00,
2013-01-01 09:36:00,76.2,69.0,30.01,NNE,20,15.0,-999.0,78,0.00,,,0.00,PyWeather,2013-01-01 19:36:00,
2013-01-01 09:37:00,76.6,68.2,30.01,North,360,17.0,-999.0,75,0.00,,,0.00,PyWeather,2013-01-01 19:37:00,
2013-01-01 09:39:00,76.9,68.2,30.01,NNE,20,16.0,-999.0,74,0.00,,,0.00,PyWeather,2013-01-01 19:39:00,
2013-01-01 09:42:00,76.4,68.8,30.01,NNW,345,16.0,22.0,77,0.00,,,0.00,PyWeather,2013-01-01 19:42:00,
2013-01-01 09:47:00,76.7,68.7,30.01,NNE,22,16.0,22.0,76,0.00,,,0.00,PyWeather,2013-01-01 19:47:00,
2013-01-01 09:52:00,76.8,68.4,30.01,North,5,16.0,-999.0,75,0.00,,,0.00,PyWeather,2013-01-01 19:52:00,
2013-01-01 09:57:00,77.3,68.2,30.02,NE,34,15.0,-999.0,73,0.00,,,0.00,PyWeather,2013-01-01 19:57:00,
2013-01-01 10:03:00,77.7,67.8,30.01,North,10,13.0,23.0,71,0.00,,,0.00,PyWeather,2013-01-01 20:03:00,
2013-01-01 10:08:00,78.3,68.3,30.01,NNE,32,13.0,23.0,71,0.00,,,0.00,PyWeather,2013-01-01 20:08:00,
2013-01-01 10:14:00,78.1,67.7,30.01,NNE,17,13.0,21.0,70,0.00,,,0.00,PyWeather,2013-01-01 20:14:00,
2013-01-01 10:19:00,77.8,67.0,30.00,NNE,12,14.0,22.0,69,0.00,,,0.00,PyWeather,2013-01-01 20:19:00,
2013-01-01 10:24:00,77.9,67.1,30.00,North,360,14.0,22.0,69,0.00,,,0.00,PyWeather,2013-01-01 20:24:00,
2013-01-01 10:29:00,77.9,67.1,30.00,North,5,15.0,-999.0,69,0.00,,,0.00,PyWeather,2013-01-01 20:29:00,
2013-01-01 10:35:00,77.7,66.9,30.00,North,360,16.0,-999.0,69,0.00,,,0.00,PyWeather,2013-01-01 20:35:00,
2013-01-01 10:40:00,77.6,66.8,30.00,North,5,17.0,-999.0,69,0.00,,,0.00,PyWeather,2013-01-01 20:40:00,
2013-01-01 10:43:00,78.7,67.1,29.99,NNE,16,15.0,23.0,67,0.00,,,0.00,PyWeather,2013-01-01 20:43:00,
2013-01-01 10:44:00,78.6,67.0,29.99,North,10,15.0,23.0,67,0.00,,,0.00,PyWeather,2013-01-01 20:44:00,
2013-01-01 10:45:00,78.1,67.3,30.00,North,5,16.0,-999.0,69,0.00,,,0.00,PyWeather,2013-01-01 20:45:00,
2013-01-01 10:47:00,78.6,67.4,29.99,NE,55,16.0,24.0,68,0.00,,,0.00,PyWeather,2013-01-01 20:47:00,
2013-01-01 10:49:00,78.6,67.4,29.99,NE,42,16.0,24.0,68,0.00,,,0.00,PyWeather,2013-01-01 20:49:00,
2013-01-01 10:50:00,78.6,67.8,30.00,NNE,14,15.0,23.0,69,0.00,,,0.00,PyWeather,2013-01-01 20:50:00,
2013-01-01 10:51:00,78.7,67.5,29.99,NE,40,16.0,24.0,68,0.00,,,0.00,PyWeather,2013-01-01 20:51:00,
2013-01-01 10:52:00,78.8,67.1,29.98,NE,40,16.0,24.0,67,0.00,,,0.00,PyWeather,2013-01-01 20:52:00,
2013-01-01 10:53:00,78.8,67.6,29.99,NE,34,16.0,24.0,68,0.00,,,0.00,PyWeather,2013-01-01 20:53:00,
2013-01-01 10:54:00,78.8,67.6,29.98,North,9,16.0,24.0,68,0.00,,,0.00,PyWeather,2013-01-01 20:54:00,
2013-01-01 10:55:00,78.9,67.2,29.99,NE,37,14.0,23.0,67,0.00,,,0.00,PyWeather,2013-01-01 20:55:00,
2013-01-01 10:56:00,78.8,67.1,29.98,NE,34,17.0,-999.0,67,0.00,,,0.00,PyWeather,2013-01-01 20:56:00,
2013-01-01 10:57:00,78.7,66.6,29.98,NNE,32,17.0,-999.0,66,0.00,,,0.00,PyWeather,2013-01-01 20:57:00,
2013-01-01 11:00:00,78.6,67.4,29.99,NNE,25,16.0,24.0,68,0.00,,,0.00,PyWeather,2013-01-01 21:00:00,
2013-01-01 11:05:00,78.8,67.6,29.99,NE,36,17.0,24.0,68,0.00,,,0.00,PyWeather,2013-01-01 21:05:00,
2013-01-01 11:06:00,78.8,67.1,29.98,NNE,33,19.0,-999.0,67,0.00,,,0.00,PyWeather,2013-01-01 21:06:00,
2013-01-01 11:07:00,79.0,67.3,29.98,North,360,18.0,-999.0,67,0.00,,,0.00,PyWeather,2013-01-01 21:07:00,
2013-01-01 11:08:00,79.1,67.4,29.97,NE,34,18.0,-999.0,67,0.00,,,0.00,PyWeather,2013-01-01 21:08:00,
2013-01-01 11:09:00,79.1,67.4,29.98,NE,49,18.0,-999.0,67,0.00,,,0.00,PyWeather,2013-01-01 21:09:00,
2013-01-01 11:10:00,78.8,66.7,29.98,NNE,32,17.0,-999.0,66,0.00,,,0.00,PyWeather,2013-01-01 21:10:00,
2013-01-01 11:12:00,79.2,67.1,29.97,NNE,26,18.0,-999.0,66,0.00,,,0.00,PyWeather,2013-01-01 21:12:00,
2013-01-01 11:15:00,78.7,67.1,29.98,NNE,31,18.0,-999.0,67,0.00,,,0.00,PyWeather,2013-01-01 21:15:00,
2013-01-01 11:16:00,79.3,68.5,29.97,NNE,18,18.0,27.0,69,0.00,,,0.00,PyWeather,2013-01-01 21:16:00,
2013-01-01 11:17:00,79.0,68.6,29.97,NNE,19,18.0,27.0,70,0.00,,,0.00,PyWeather,2013-01-01 21:17:00,
2013-01-01 11:18:00,78.6,68.2,29.97,NNE,16,19.0,27.0,70,0.00,,,0.00,PyWeather,2013-01-01 21:18:00,
2013-01-01 11:19:00,78.2,68.2,29.97,NNE,17,19.0,27.0,71,0.00,,,0.00,PyWeather,2013-01-01 21:19:00,
2013-01-01 11:20:00,79.0,67.3,29.98,NE,42,18.0,-999.0,67,0.00,,,0.00,PyWeather,2013-01-01 21:20:00,
2013-01-01 11:23:00,77.0,68.3,29.97,NNE,26,20.0,27.0,74,0.00,,,0.00,PyWeather,2013-01-01 21:23:00,
2013-01-01 11:24:00,76.6,67.5,29.97,NNE,23,20.0,27.0,73,0.00,,,0.00,PyWeather,2013-01-01 21:24:00,
2013-01-01 11:25:00,79.3,67.6,29.97,NE,40,18.0,-999.0,67,0.00,,,0.00,PyWeather,2013-01-01 21:25:00,
2013-01-01 11:26:00,76.4,67.7,29.97,NNE,22,20.0,30.0,74,0.00,,,0.00,PyWeather,2013-01-01 21:26:00,
2013-01-01 11:28:00,76.2,67.5,29.97,North,11,21.0,30.0,74,0.00,,,0.00,PyWeather,2013-01-01 21:28:00,
2013-01-01 11:29:00,76.2,67.9,29.96,NNE,23,21.0,30.0,75,0.00,,,0.00,PyWeather,2013-01-01 21:29:00,
2013-01-01 11:30:00,78.9,68.5,29.97,ENE,65,18.0,27.0,70,0.00,,,0.00,PyWeather,2013-01-01 21:30:00,
2013-01-01 11:31:00,76.6,68.2,29.96,NE,34,20.0,30.0,75,0.00,,,0.00,PyWeather,2013-01-01 21:31:00,
2013-01-01 11:32:00,76.8,68.1,29.96,NNE,33,20.0,30.0,74,0.00,,,0.00,PyWeather,2013-01-01 21:32:00,
2013-01-01 11:34:00,76.7,68.3,29.96,NNE,22,19.0,30.0,75,0.00,,,0.00,PyWeather,2013-01-01 21:34:00,
2013-01-01 11:35:00,77.1,68.0,29.97,NNE,23,20.0,27.0,73,0.00,,,0.00,PyWeather,2013-01-01 21:35:00,
2013-01-01 11:36:00,77.0,68.3,29.96,North,351,19.0,31.0,74,0.00,,,0.00,PyWeather,2013-01-01 21:36:00,
2013-01-01 11:37:00,76.9,68.2,29.96,NE,39,19.0,31.0,74,0.00,,,0.00,PyWeather,2013-01-01 21:37:00,
2013-01-01 11:38:00,76.8,68.1,29.96,NNE,26,19.0,31.0,74,0.00,,,0.00,PyWeather,2013-01-01 21:38:00,
2013-01-01 11:39:00,76.9,68.2,29.96,NE,41,19.0,31.0,74,0.00,,,0.00,PyWeather,2013-01-01 21:39:00,
2013-01-01 11:40:00,76.3,67.6,29.97,NNE,19,21.0,30.0,74,0.00,,,0.00,PyWeather,2013-01-01 21:40:00,
2013-01-01 11:41:00,76.9,68.2,29.95,NE,34,19.0,31.0,74,0.00,,,0.00,PyWeather,2013-01-01 21:41:00,
2013-01-01 11:43:00,77.0,68.3,29.95,NNE,24,18.0,31.0,74,0.00,,,0.00,PyWeather,2013-01-01 21:43:00,
2013-01-01 11:45:00,76.8,68.1,29.96,NNE,31,20.0,30.0,74,0.00,,,0.00,PyWeather,2013-01-01 21:45:00,
2013-01-01 11:46:00,77.0,68.3,29.95,North,9,19.0,32.0,74,0.00,,,0.00,PyWeather,2013-01-01 21:46:00,
2013-01-01 11:47:00,77.1,68.3,29.95,NE,50,18.0,32.0,74,0.00,,,0.00,PyWeather,2013-01-01 21:47:00,
2013-01-01 11:50:00,76.9,68.2,29.96,NNE,26,19.0,31.0,74,0.00,,,0.00,PyWeather,2013-01-01 21:50:00,
2013-01-01 11:55:00,76.9,68.2,29.95,NNE,22,19.0,31.0,74,0.00,,,0.00,PyWeather,2013-01-01 21:55:00,
2013-01-01 12:00:00,77.1,68.3,29.95,NNE,30,19.0,32.0,74,0.00,,,0.00,PyWeather,2013-01-01 22:00:00,
2013-01-01 12:05:00,77.3,68.5,29.95,NNE,28,18.0,32.0,74,0.00,,,0.00,PyWeather,2013-01-01 22:05:00,
2013-01-01 12:11:00,77.0,68.6,29.95,NE,34,18.0,27.0,75,0.00,,,0.00,PyWeather,2013-01-01 22:11:00,
2013-01-01 12:16:00,76.9,68.5,29.94,NNE,32,18.0,27.0,75,0.00,,,0.00,PyWeather,2013-01-01 22:16:00,
2013-01-01 12:21:00,76.6,68.2,29.94,North,5,19.0,27.0,75,0.00,,,0.00,PyWeather,2013-01-01 22:21:00,
2013-01-01 12:26:00,76.4,68.4,29.94,NE,34,19.0,27.0,76,0.00,,,0.00,PyWeather,2013-01-01 22:26:00,
2013-01-01 12:31:00,76.8,69.2,29.94,NE,34,17.0,28.0,77,0.00,,,0.00,PyWeather,2013-01-01 22:31:00,
2013-01-01 12:36:00,76.6,68.6,29.93,North,355,18.0,28.0,76,0.00,,,0.00,PyWeather,2013-01-01 22:36:00,
2013-01-01 12:41:00,76.4,68.4,29.93,NNE,24,19.0,28.0,76,0.00,,,0.00,PyWeather,2013-01-01 22:41:00,
2013-01-01 12:46:00,76.2,68.2,29.93,NNE,26,19.0,28.0,76,0.00,,,0.00,PyWeather,2013-01-01 22:46:00,
2013-01-01 12:52:00,76.2,68.6,29.92,North,9,18.0,29.0,77,0.00,,,0.00,PyWeather,2013-01-01 22:52:00,
2013-01-01 12:57:00,75.8,68.2,29.92,NNE,26,18.0,29.0,77,0.00,,,0.00,PyWeather,2013-01-01 22:57:00,
2013-01-01 13:02:00,76.2,68.6,29.92,NNE,33,18.0,26.0,77,0.00,,,0.00,PyWeather,2013-01-01 23:02:00,
2013-01-01 13:07:00,76.5,68.5,29.91,NNE,29,18.0,26.0,76,0.00,,,0.00,PyWeather,2013-01-01 23:07:00,
2013-01-01 13:09:00,76.2,68.6,29.90,NNE,33,20.0,30.0,77,0.00,,,0.00,PyWeather,2013-01-01 23:09:00,
2013-01-01 13:12:00,76.8,69.2,29.91,NE,45,19.0,27.0,77,0.00,,,0.00,PyWeather,2013-01-01 23:12:00,
2013-01-01 13:14:00,77.1,69.5,29.90,North,11,19.0,30.0,77,0.00,,,0.00,PyWeather,2013-01-01 23:14:00,
2013-01-01 13:15:00,77.1,69.5,29.90,NNE,17,19.0,30.0,77,0.00,,,0.00,PyWeather,2013-01-01 23:15:00,
2013-01-01 13:17:00,76.5,68.9,29.90,NNE,12,19.0,27.0,77,0.00,,,0.00,PyWeather,2013-01-01 23:17:00,
2013-01-01 13:18:00,77.3,68.9,29.90,NNE,31,18.0,27.0,75,0.00,,,0.00,PyWeather,2013-01-01 23:18:00,
2013-01-01 13:22:00,76.2,68.6,29.90,NNE,31,20.0,30.0,77,0.00,,,0.00,PyWeather,2013-01-01 23:22:00,
2013-01-01 13:23:00,77.1,68.7,29.89,NE,35,18.0,27.0,75,0.00,,,0.00,PyWeather,2013-01-01 23:23:00,
2013-01-01 13:25:00,77.2,69.2,29.89,North,11,18.0,27.0,76,0.00,,,0.00,PyWeather,2013-01-01 23:25:00,
2013-01-01 13:27:00,76.9,69.3,29.90,North,10,19.0,30.0,77,0.00,,,0.00,PyWeather,2013-01-01 23:27:00,
2013-01-01 13:28:00,76.9,68.5,29.90,NNE,26,18.0,30.0,75,0.00,,,0.00,PyWeather,2013-01-01 23:28:00,
2013-01-01 13:29:00,76.9,68.5,29.90,NNE,25,19.0,30.0,75,0.00,,,0.00,PyWeather,2013-01-01 23:29:00,
2013-01-01 13:30:00,76.8,68.8,29.89,NNE,32,19.0,30.0,76,0.00,,,0.00,PyWeather,2013-01-01 23:30:00,
2013-01-01 13:31:00,76.8,68.4,29.89,NNE,19,20.0,30.0,75,0.00,,,0.00,PyWeather,2013-01-01 23:31:00,
2013-01-01 13:32:00,77.1,68.7,29.90,NNE,26,19.0,27.0,75,0.00,,,0.00,PyWeather,2013-01-01 23:32:00,
2013-01-01 13:37:00,77.1,68.7,29.89,North,10,18.0,27.0,75,0.00,,,0.00,PyWeather,2013-01-01 23:37:00,
2013-01-01 13:42:00,76.9,68.5,29.90,NE,39,18.0,30.0,75,0.00,,,0.00,PyWeather,2013-01-01 23:42:00,
2013-01-01 13:47:00,76.7,68.3,29.89,NNE,18,21.0,30.0,75,0.00,,,0.00,PyWeather,2013-01-01 23:47:00,
2013-01-01 13:52:00,76.7,68.3,29.89,NE,40,21.0,30.0,75,0.00,,,0.00,PyWeather,2013-01-01 23:52:00,
2013-01-01 13:57:00,77.4,69.0,29.89,NNE,25,19.0,30.0,75,0.00,,,0.00,PyWeather,2013-01-01 23:57:00,
2013-01-01 14:02:00,77.3,68.2,29.89,NNE,24,18.0,28.0,73,0.00,,,0.00,PyWeather,2013-01-02 00:02:00,
2013-01-01 14:07:00,77.4,67.9,29.89,NNE,31,19.0,28.0,72,0.00,,,0.00,PyWeather,2013-01-02 00:07:00,
2013-01-01 14:10:00,77.3,67.8,29.89,NE,37,17.0,26.0,72,0.00,,,0.00,PyWeather,2013-01-02 00:10:00,
2013-01-01 14:11:00,77.3,67.8,29.89,NE,41,17.0,26.0,72,0.00,,,0.00,PyWeather,2013-01-02 00:11:00,
2013-01-01 14:12:00,77.2,68.1,29.89,NNE,32,20.0,28.0,73,0.00,,,0.00,PyWeather,2013-01-02 00:12:00,
2013-01-01 14:15:00,77.3,68.2,29.89,NNE,25,16.0,26.0,73,0.00,,,0.00,PyWeather,2013-01-02 00:15:00,
2013-01-01 14:17:00,77.4,68.3,29.89,NE,49,19.0,28.0,73,0.00,,,0.00,PyWeather,2013-01-02 00:17:00,
2013-01-01 14:18:00,77.5,68.0,29.89,NE,34,17.0,23.0,72,0.00,,,0.00,PyWeather,2013-01-02 00:18:00,
2013-01-01 14:20:00,77.3,67.8,29.89,NNE,32,17.0,23.0,72,0.00,,,0.00,PyWeather,2013-01-02 00:20:00,
2013-01-01 14:22:00,77.5,68.0,29.89,North,9,17.0,26.0,72,0.00,,,0.00,PyWeather,2013-01-02 00:22:00,
2013-01-01 14:23:00,77.1,68.3,29.89,NNE,24,17.0,23.0,74,0.00,,,0.00,PyWeather,2013-01-02 00:23:00,
2013-01-01 14:24:00,77.0,68.3,29.89,NNE,30,17.0,23.0,74,0.00,,,0.00,PyWeather,2013-01-02 00:24:00,
2013-01-01 14:25:00,77.1,68.3,29.89,North,9,17.0,23.0,74,0.00,,,0.00,PyWeather,2013-01-02 00:25:00,
2013-01-01 14:26:00,77.1,68.3,29.89,NE,45,17.0,26.0,74,0.00,,,0.00,PyWeather,2013-01-02 00:26:00,
2013-01-01 14:27:00,77.3,68.2,29.89,NNE,31,16.0,26.0,73,0.00,,,0.00,PyWeather,2013-01-02 00:27:00,
2013-01-01 14:28:00,77.2,68.4,29.89,NNE,24,17.0,26.0,74,0.00,,,0.00,PyWeather,2013-01-02 00:28:00,
2013-01-01 14:31:00,77.0,68.3,29.89,North,10,16.0,26.0,74,0.00,,,0.00,PyWeather,2013-01-02 00:31:00,
2013-01-01 14:32:00,77.4,67.9,29.89,NE,41,17.0,23.0,72,0.00,,,0.00,PyWeather,2013-01-02 00:32:00,
2013-01-01 14:33:00,77.0,68.6,29.89,North,349,16.0,26.0,75,0.00,,,0.00,PyWeather,2013-01-02 00:33:00,
2013-01-01 14:34:00,77.1,69.1,29.89,NNE,24,16.0,26.0,76,0.00,,,0.00,PyWeather,2013-01-02 00:34:00,
2013-01-01 14:36:00,77.0,68.6,29.89,NNE,12,16.0,25.0,75,0.00,,,0.00,PyWeather,2013-01-02 00:36:00,
2013-01-01 14:37:00,77.1,68.3,29.89,NNE,27,17.0,23.0,74,0.00,,,0.00,PyWeather,2013-01-02 00:37:00,
2013-01-01 14:38:00,77.1,69.1,29.89,NE,37,16.0,25.0,76,0.00,,,0.00,PyWeather,2013-01-02 00:38:00,
2013-01-01 14:39:00,77.3,69.3,29.89,NE,35,16.0,25.0,76,0.00,,,0.00,PyWeather,2013-01-02 00:39:00,
2013-01-01 14:40:00,77.3,68.9,29.89,NE,34,16.0,25.0,75,0.00,,,0.00,PyWeather,2013-01-02 00:40:00,
2013-01-01 14:42:00,77.1,68.3,29.89,NNE,22,17.0,26.0,74,0.00,,,0.00,PyWeather,2013-01-02 00:42:00,
2013-01-01 14:47:00,77.0,69.0,29.89,NE,36,16.0,26.0,76,0.00,,,0.00,PyWeather,2013-01-02 00:47:00,
2013-01-01 14:52:00,77.2,69.2,29.89,NNE,31,16.0,25.0,76,0.00,,,0.00,PyWeather,2013-01-02 00:52:00,
2013-01-01 14:57:00,77.4,69.0,29.88,NNE,21,16.0,25.0,75,0.00,,,0.00,PyWeather,2013-01-02 00:57:00,
2013-01-01 15:02:00,77.2,68.4,29.89,North,5,17.0,25.0,74,0.00,,,0.00,PyWeather,2013-01-02 01:02:00,
2013-01-01 15:04:00,77.2,69.2,29.88,NNE,13,15.0,25.0,76,0.00,,,0.00,PyWeather,2013-01-02 01:04:00,
2013-01-01 15:05:00,77.1,69.1,29.88,NNE,17,15.0,25.0,76,0.00,,,0.00,PyWeather,2013-01-02 01:05:00,
2013-01-01 15:06:00,77.0,68.6,29.89,NE,36,15.0,25.0,75,0.00,,,0.00,PyWeather,2013-01-02 01:06:00,
2013-01-01 15:07:00,77.1,68.7,29.89,North,5,16.0,25.0,75,0.00,,,0.00,PyWeather,2013-01-02 01:07:00,
2013-01-01 15:08:00,76.7,68.7,29.88,NE,36,16.0,25.0,76,0.00,,,0.00,PyWeather,2013-01-02 01:08:00,
2013-01-01 15:09:00,76.7,68.7,29.88,NE,36,17.0,25.0,76,0.00,,,0.00,PyWeather,2013-01-02 01:09:00,
2013-01-01 15:10:00,76.7,69.1,29.89,North,9,17.0,25.0,77,0.00,,,0.00,PyWeather,2013-01-02 01:10:00,
2013-01-01 15:12:00,76.9,69.3,29.88,North,5,15.0,25.0,77,0.00,,,0.00,PyWeather,2013-01-02 01:12:00,
2013-01-01 15:13:00,76.5,68.5,29.89,NE,38,18.0,25.0,76,0.00,,,0.00,PyWeather,2013-01-02 01:13:00,
2013-01-01 15:14:00,76.5,68.5,29.89,NE,38,18.0,25.0,76,0.00,,,0.00,PyWeather,2013-01-02 01:14:00,
2013-01-01 15:15:00,76.4,68.8,29.89,North,9,18.0,25.0,77,0.00,,,0.00,PyWeather,2013-01-02 01:15:00,
2013-01-01 15:16:00,76.4,68.8,29.89,NNE,26,18.0,26.0,77,0.00,,,0.00,PyWeather,2013-01-02 01:16:00,
2013-01-01 15:17:00,76.4,68.8,29.89,North,5,17.0,26.0,77,0.00,,,0.00,PyWeather,2013-01-02 01:17:00,
2013-01-01 15:18:00,77.2,69.2,29.88,NNE,29,15.0,25.0,76,0.00,,,0.00,PyWeather,2013-01-02 01:18:00,
2013-01-01 15:20:00,76.0,68.4,29.89,NNE,27,17.0,26.0,77,0.00,,,0.00,PyWeather,2013-01-02 01:20:00,
2013-01-01 15:23:00,76.7,68.7,29.88,North,11,17.0,25.0,76,0.00,,,0.00,PyWeather,2013-01-02 01:23:00,
2013-01-01 15:26:00,76.0,68.8,29.88,North,360,16.0,25.0,78,0.00,,,0.00,PyWeather,2013-01-02 01:26:00,
2013-01-01 15:27:00,76.0,68.8,29.89,NE,36,17.0,25.0,78,0.00,,,0.00,PyWeather,2013-01-02 01:27:00,
2013-01-01 15:28:00,76.0,68.8,29.89,NNE,26,16.0,25.0,78,0.00,,,0.00,PyWeather,2013-01-02 01:28:00,
2013-01-01 15:29:00,76.4,68.8,29.89,North,360,18.0,26.0,77,0.00,,,0.00,PyWeather,2013-01-02 01:29:00,
2013-01-01 15:30:00,76.3,69.4,29.89,NNE,23,16.0,25.0,79,0.00,,,0.00,PyWeather,2013-01-02 01:30:00,
2013-01-01 15:31:00,76.4,69.2,29.89,NNE,23,16.0,25.0,78,0.00,,,0.00,PyWeather,2013-01-02 01:31:00,
2013-01-01 15:32:00,76.4,69.2,29.89,North,9,16.0,25.0,78,0.00,,,0.00,PyWeather,2013-01-02 01:32:00,
2013-01-01 15:33:00,76.4,68.8,29.89,North,9,16.0,25.0,77,0.00,,,0.00,PyWeather,2013-01-02 01:33:00,
2013-01-01 15:34:00,76.0,68.8,29.89,NNE,30,17.0,26.0,78,0.00,,,0.00,PyWeather,2013-01-02 01:34:00,
2013-01-01 15:35:00,76.2,69.0,29.89,NNE,27,16.0,25.0,78,0.00,,,0.00,PyWeather,2013-01-02 01:35:00,
2013-01-01 15:39:00,76.0,68.8,29.88,NNE,26,16.0,25.0,78,0.00,,,0.00,PyWeather,2013-01-02 01:39:00,
2013-01-01 15:44:00,76.3,69.4,29.89,NE,36,16.0,25.0,79,0.00,,,0.00,PyWeather,2013-01-02 01:44:00,
2013-01-01 15:49:00,76.2,69.0,29.89,NNE,25,16.0,27.0,78,0.00,,,0.00,PyWeather,2013-01-02 01:49:00,
2013-01-01 15:53:00,76.3,69.4,29.89,NNE,13,16.0,23.0,79,0.00,,,0.00,PyWeather,2013-01-02 01:53:00,
2013-01-01 15:54:00,76.3,69.4,29.89,NNE,19,16.0,27.0,79,0.00,,,0.00,PyWeather,2013-01-02 01:54:00,
2013-01-01 15:56:00,76.4,69.5,29.89,North,9,17.0,26.0,79,0.00,,,0.00,PyWeather,2013-01-02 01:56:00,
2013-01-01 15:57:00,76.4,69.5,29.89,NNE,19,16.0,26.0,79,0.00,,,0.00,PyWeather,2013-01-02 01:57:00,
2013-01-01 15:58:00,76.5,69.6,29.89,NNE,23,16.0,26.0,79,0.00,,,0.00,PyWeather,2013-01-02 01:58:00,
2013-01-01 15:59:00,76.5,69.6,29.89,North,351,15.0,23.0,79,0.00,,,0.00,PyWeather,2013-01-02 01:59:00,
2013-01-01 16:01:00,76.4,69.2,29.90,NE,34,16.0,26.0,78,0.00,,,0.00,PyWeather,2013-01-02 02:01:00,
2013-01-01 16:02:00,76.4,68.8,29.90,NE,39,16.0,26.0,77,0.00,,,0.00,PyWeather,2013-01-02 02:02:00,
2013-01-01 16:04:00,76.2,69.3,29.89,NNE,32,16.0,23.0,79,0.00,,,0.00,PyWeather,2013-01-02 02:04:00,
2013-01-01 16:06:00,76.4,68.8,29.90,NNE,26,15.0,27.0,77,0.00,,,0.00,PyWeather,2013-01-02 02:06:00,
2013-01-01 16:07:00,76.4,68.8,29.90,NNE,19,15.0,27.0,77,0.00,,,0.00,PyWeather,2013-01-02 02:07:00,
2013-01-01 16:09:00,76.4,69.5,29.89,NE,35,17.0,26.0,79,0.00,,,0.00,PyWeather,2013-01-02 02:09:00,
2013-01-01 16:10:00,76.5,68.9,29.90,NNE,21,15.0,27.0,77,0.00,,,0.00,PyWeather,2013-01-02 02:10:00,
2013-01-01 16:14:00,76.4,69.2,29.90,North,5,16.0,26.0,78,0.00,,,0.00,PyWeather,2013-01-02 02:14:00,
2013-01-01 16:15:00,76.5,68.9,29.90,NNE,26,15.0,27.0,77,0.00,,,0.00,PyWeather,2013-01-02 02:15:00,
2013-01-01 16:17:00,76.5,68.9,29.90,NNE,13,15.0,26.0,77,0.00,,,0.00,PyWeather,2013-01-02 02:17:00,
2013-01-01 16:19:00,76.4,68.8,29.90,NNE,29,15.0,27.0,77,0.00,,,0.00,PyWeather,2013-01-02 02:19:00,
2013-01-01 16:24:00,76.5,68.9,29.90,North,9,15.0,27.0,77,0.00,,,0.00,PyWeather,2013-01-02 02:24:00,
2013-01-01 16:29:00,76.5,68.9,29.90,North,360,15.0,26.0,77,0.00,,,0.00,PyWeather,2013-01-02 02:29:00,
2013-01-01 16:34:00,76.2,68.6,29.90,NNE,13,15.0,26.0,77,0.00,,,0.00,PyWeather,2013-01-02 02:34:00,
2013-01-01 16:35:00,75.5,68.6,29.91,North,5,14.0,26.0,79,0.00,,,0.00,PyWeather,2013-01-02 02:35:00,
2013-01-01 16:36:00,75.5,68.6,29.90,North,355,14.0,23.0,79,0.00,,,0.00,PyWeather,2013-01-02 02:36:00,
2013-01-01 16:38:00,75.3,68.4,29.90,NNE,28,15.0,23.0,79,0.00,,,0.00,PyWeather,2013-01-02 02:38:00,
2013-01-01 16:39:00,75.8,68.2,29.90,North,355,15.0,26.0,77,0.00,,,0.00,PyWeather,2013-01-02 02:39:00,
2013-01-01 16:40:00,75.1,68.6,29.90,NNE,26,15.0,23.0,80,0.00,,,0.00,PyWeather,2013-01-02 02:40:00,
2013-01-01 16:42:00,75.0,68.5,29.90,NNE,15,15.0,23.0,80,0.00,,,0.00,PyWeather,2013-01-02 02:42:00,
2013-01-01 16:44:00,75.6,68.4,29.90,NNE,17,15.0,26.0,78,0.00,,,0.00,PyWeather,2013-01-02 02:44:00,
2013-01-01 16:45:00,74.9,68.4,29.90,NNE,22,15.0,23.0,80,0.00,,,0.00,PyWeather,2013-01-02 02:45:00,
2013-01-01 16:46:00,74.9,68.4,29.91,NNE,15,15.0,23.0,80,0.00,,,0.00,PyWeather,2013-01-02 02:46:00,
2013-01-01 16:47:00,74.9,68.4,29.91,NNE,19,15.0,23.0,80,0.00,,,0.00,PyWeather,2013-01-02 02:47:00,
2013-01-01 16:48:00,74.9,68.8,29.90,NNE,28,15.0,23.0,81,0.00,,,0.00,PyWeather,2013-01-02 02:48:00,
2013-01-01 16:49:00,75.5,68.6,29.90,NNE,15,14.0,23.0,79,0.00,,,0.00,PyWeather,2013-01-02 02:49:00,
2013-01-01 16:50:00,74.8,68.3,29.90,North,360,14.0,23.0,80,0.00,,,0.00,PyWeather,2013-01-02 02:50:00,
2013-01-01 16:51:00,74.8,68.3,29.91,NNE,13,15.0,23.0,80,0.00,,,0.00,PyWeather,2013-01-02 02:51:00,
2013-01-01 16:52:00,74.8,68.3,29.91,NNE,23,15.0,23.0,80,0.00,,,0.00,PyWeather,2013-01-02 02:52:00,
2013-01-01 16:54:00,75.0,68.5,29.90,NNE,30,15.0,23.0,80,0.00,,,0.00,PyWeather,2013-01-02 02:54:00,
2013-01-01 16:55:00,74.8,68.7,29.91,NNE,17,15.0,23.0,81,0.00,,,0.00,PyWeather,2013-01-02 02:55:00,
2013-01-01 16:56:00,74.9,68.4,29.91,NNE,28,15.0,23.0,80,0.00,,,0.00,PyWeather,2013-01-02 02:56:00,
2013-01-01 16:59:00,74.9,68.4,29.90,North,360,15.0,23.0,80,0.00,,,0.00,PyWeather,2013-01-02 02:59:00,
2013-01-01 17:04:00,74.8,68.3,29.90,North,360,14.0,23.0,80,0.00,,,0.00,PyWeather,2013-01-02 03:04:00,
2013-01-01 17:10:00,74.9,68.4,29.91,NNE,28,15.0,23.0,80,0.00,,,0.00,PyWeather,2013-01-02 03:10:00,
2013-01-01 17:15:00,74.8,68.3,29.91,NNE,26,16.0,23.0,80,0.00,,,0.00,PyWeather,2013-01-02 03:15:00,
2013-01-01 17:20:00,74.6,68.5,29.91,NNE,21,15.0,22.0,81,0.00,,,0.00,PyWeather,2013-01-02 03:20:00,
2013-01-01 17:25:00,74.2,68.1,29.92,NNE,20,15.0,22.0,81,0.00,,,0.00,PyWeather,2013-01-02 03:25:00,
2013-01-01 17:30:00,74.1,68.3,29.92,NNE,29,15.0,25.0,82,0.00,,,0.00,PyWeather,2013-01-02 03:30:00,
2013-01-01 17:35:00,74.0,68.2,29.92,NNE,17,15.0,25.0,82,0.00,,,0.00,PyWeather,2013-01-02 03:35:00,
2013-01-01 17:40:00,73.9,68.1,29.92,NE,34,15.0,22.0,82,0.00,,,0.00,PyWeather,2013-01-02 03:40:00,
2013-01-01 17:45:00,73.7,67.9,29.92,NNE,30,16.0,22.0,82,0.00,,,0.00,PyWeather,2013-01-02 03:45:00,
2013-01-01 17:50:00,73.7,67.9,29.93,NNE,28,16.0,24.0,82,0.00,,,0.00,PyWeather,2013-01-02 03:50:00,
2013-01-01 17:56:00,73.5,67.7,29.92,NNE,14,14.0,24.0,82,0.00,,,0.00,PyWeather,2013-01-02 03:56:00,
2013-01-01 18:01:00,73.1,67.3,29.92,North,360,14.0,-999.0,82,0.00,,,0.00,PyWeather,2013-01-02 04:01:00,
2013-01-01 18:06:00,72.7,67.3,29.93,North,10,15.0,-999.0,83,0.00,,,0.00,PyWeather,2013-01-02 04:06:00,
2013-01-01 18:12:00,72.2,66.8,29.93,North,360,15.0,-999.0,83,0.00,,,0.00,PyWeather,2013-01-02 04:12:00,
2013-01-01 18:17:00,71.8,66.7,29.93,North,360,16.0,-999.0,84,0.00,,,0.00,PyWeather,2013-01-02 04:17:00,
2013-01-01 18:22:00,71.2,66.5,29.93,North,360,17.0,24.0,85,0.00,,,0.00,PyWeather,2013-01-02 04:22:00,
2013-01-01 18:27:00,70.8,66.4,29.93,NNE,19,18.0,24.0,86,0.00,,,0.00,PyWeather,2013-01-02 04:27:00,
2013-01-01 18:33:00,70.6,66.5,29.93,North,351,17.0,24.0,87,0.00,,,0.00,PyWeather,2013-01-02 04:33:00,
2013-01-01 18:38:00,70.8,66.7,29.94,North,9,16.0,24.0,87,0.00,,,0.00,PyWeather,2013-01-02 04:38:00,
2013-01-01 18:40:00,71.1,67.4,29.94,NNE,17,14.0,23.0,88,0.00,,,0.00,PyWeather,2013-01-02 04:40:00,
2013-01-01 18:41:00,71.1,67.4,29.95,NNE,13,14.0,23.0,88,0.00,,,0.00,PyWeather,2013-01-02 04:41:00,
2013-01-01 18:42:00,71.2,67.5,29.95,NNE,13,15.0,23.0,88,0.00,,,0.00,PyWeather,2013-01-02 04:42:00,
2013-01-01 18:43:00,70.8,66.7,29.94,North,351,16.0,25.0,87,0.00,,,0.00,PyWeather,2013-01-02 04:43:00,
2013-01-01 18:45:00,71.1,67.4,29.95,North,360,14.0,22.0,88,0.00,,,0.00,PyWeather,2013-01-02 04:45:00,
2013-01-01 18:46:00,71.0,67.3,29.95,North,355,15.0,22.0,88,0.00,,,0.00,PyWeather,2013-01-02 04:46:00,
2013-01-01 18:47:00,71.0,67.3,29.95,North,355,15.0,22.0,88,0.00,,,0.00,PyWeather,2013-01-02 04:47:00,
2013-01-01 18:48:00,71.1,67.0,29.94,North,360,16.0,25.0,87,0.00,,,0.00,PyWeather,2013-01-02 04:48:00,
2013-01-01 18:49:00,71.0,67.3,29.95,NNE,13,14.0,22.0,88,0.00,,,0.00,PyWeather,2013-01-02 04:49:00,
2013-01-01 18:50:00,71.0,67.3,29.95,North,350,15.0,22.0,88,0.00,,,0.00,PyWeather,2013-01-02 04:50:00,
2013-01-01 18:51:00,71.1,67.7,29.95,North,5,15.0,22.0,89,0.00,,,0.00,PyWeather,2013-01-02 04:51:00,
2013-01-01 18:52:00,71.1,67.7,29.94,NNE,13,14.0,22.0,89,0.00,,,0.00,PyWeather,2013-01-02 04:52:00,
2013-01-01 18:53:00,71.1,67.4,29.94,North,360,14.0,23.0,88,0.00,,,0.00,PyWeather,2013-01-02 04:53:00,
2013-01-01 18:54:00,71.2,67.8,29.95,North,9,14.0,22.0,89,0.00,,,0.00,PyWeather,2013-01-02 04:54:00,
2013-01-01 18:55:00,71.2,67.8,29.95,North,5,14.0,22.0,89,0.00,,,0.00,PyWeather,2013-01-02 04:55:00,
2013-01-01 18:56:00,71.2,67.8,29.95,NNE,26,14.0,-999.0,89,0.00,,,0.00,PyWeather,2013-01-02 04:56:00,
2013-01-01 18:57:00,71.2,67.8,29.95,NNE,26,14.0,-999.0,89,0.00,,,0.00,PyWeather,2013-01-02 04:57:00,
2013-01-01 18:58:00,71.1,67.4,29.95,North,360,14.0,23.0,88,0.00,,,0.00,PyWeather,2013-01-02 04:58:00,
2013-01-01 18:59:00,71.2,67.8,29.95,NNE,28,15.0,-999.0,89,0.00,,,0.00,PyWeather,2013-01-02 04:59:00,
2013-01-01 19:00:00,71.2,67.8,29.95,NNE,23,15.0,-999.0,89,0.00,,,0.00,PyWeather,2013-01-02 05:00:00,
2013-01-01 19:01:00,71.3,67.9,29.95,NNE,26,15.0,-999.0,89,0.00,,,0.00,PyWeather,2013-01-02 05:01:00,
2013-01-01 19:02:00,71.3,67.9,29.95,NNE,17,16.0,-999.0,89,0.00,,,0.00,PyWeather,2013-01-02 05:02:00,
2013-01-01 19:03:00,71.3,67.9,29.95,NNE,17,16.0,-999.0,89,0.00,,,0.00,PyWeather,2013-01-02 05:03:00,
2013-01-01 19:04:00,71.3,67.9,29.95,NNE,22,16.0,-999.0,89,0.00,,,0.00,PyWeather,2013-01-02 05:04:00,
2013-01-01 19:05:00,71.4,68.0,29.95,NNE,16,16.0,-999.0,89,0.00,,,0.00,PyWeather,2013-01-02 05:05:00,
2013-01-01 19:06:00,71.3,67.9,29.95,NNE,15,17.0,26.0,89,0.00,,,0.00,PyWeather,2013-01-02 05:06:00,
2013-01-01 19:07:00,71.3,67.9,29.95,NNE,13,17.0,26.0,89,0.00,,,0.00,PyWeather,2013-01-02 05:07:00,
2013-01-01 19:08:00,71.3,67.9,29.95,North,360,17.0,26.0,89,0.00,,,0.00,PyWeather,2013-01-02 05:08:00,
2013-01-01 19:09:00,71.2,68.1,29.95,NE,35,17.0,26.0,90,0.00,,,0.00,PyWeather,2013-01-02 05:09:00,
2013-01-01 19:10:00,71.2,68.1,29.96,North,5,17.0,26.0,90,0.00,,,0.00,PyWeather,2013-01-02 05:10:00,
2013-01-01 19:11:00,71.1,68.0,29.96,NNE,33,17.0,26.0,90,0.00,,,0.00,PyWeather,2013-01-02 05:11:00,
2013-01-01 19:12:00,71.1,68.0,29.96,NE,42,17.0,26.0,90,0.00,,,0.00,PyWeather,2013-01-02 05:12:00,
2013-01-01 19:13:00,71.1,68.0,29.95,NNE,19,17.0,26.0,90,0.00,,,0.00,PyWeather,2013-01-02 05:13:00,
2013-01-01 19:14:00,71.0,67.9,29.96,NNE,32,17.0,26.0,90,0.00,,,0.00,PyWeather,2013-01-02 05:14:00,
2013-01-01 19:15:00,71.0,67.9,29.96,NNE,24,17.0,26.0,90,0.00,,,0.00,PyWeather,2013-01-02 05:15:00,
2013-01-01 19:16:00,71.0,67.9,29.96,NNE,22,17.0,28.0,90,0.00,,,0.00,PyWeather,2013-01-02 05:16:00,
2013-01-01 19:17:00,70.9,67.8,29.96,NNE,17,17.0,28.0,90,0.00,,,0.00,PyWeather,2013-01-02 05:17:00,
2013-01-01 19:18:00,71.3,67.9,29.95,NE,41,16.0,-999.0,89,0.00,,,0.00,PyWeather,2013-01-02 05:18:00,
2013-01-01 19:19:00,70.9,67.8,29.96,NNE,25,17.0,28.0,90,0.00,,,0.00,PyWeather,2013-01-02 05:19:00,
2013-01-01 19:20:00,70.9,67.8,29.96,NNE,29,17.0,28.0,90,0.00,,,0.00,PyWeather,2013-01-02 05:20:00,
2013-01-01 19:21:00,70.9,67.8,29.96,NE,36,16.0,28.0,90,0.00,,,0.00,PyWeather,2013-01-02 05:21:00,
2013-01-01 19:22:00,70.9,67.8,29.96,NNE,14,17.0,28.0,90,0.00,,,0.00,PyWeather,2013-01-02 05:22:00,
2013-01-01 19:23:00,71.2,68.1,29.95,North,11,17.0,26.0,90,0.00,,,0.00,PyWeather,2013-01-02 05:23:00,
2013-01-01 19:24:00,70.8,67.7,29.96,NE,38,17.0,28.0,90,0.00,,,0.00,PyWeather,2013-01-02 05:24:00,
2013-01-01 19:25:00,70.7,67.6,29.96,NNE,26,17.0,28.0,90,0.00,,,0.00,PyWeather,2013-01-02 05:25:00,
2013-01-01 19:26:00,70.6,67.5,29.96,NE,42,18.0,29.0,90,0.00,,,0.00,PyWeather,2013-01-02 05:26:00,
2013-01-01 19:27:00,71.0,67.9,29.96,NNE,28,17.0,26.0,90,0.00,,,0.00,PyWeather,2013-01-02 05:27:00,
2013-01-01 19:28:00,70.5,67.4,29.97,NNE,27,19.0,29.0,90,0.00,,,0.00,PyWeather,2013-01-02 05:28:00,
2013-01-01 19:30:00,70.4,67.3,29.97,NNE,33,19.0,29.0,90,0.00,,,0.00,PyWeather,2013-01-02 05:30:00,
2013-01-01 19:33:00,70.9,67.8,29.96,NNE,25,17.0,28.0,90,0.00,,,0.00,PyWeather,2013-01-02 05:33:00,
2013-01-01 19:35:00,70.3,67.5,29.97,NE,48,20.0,29.0,91,0.00,,,0.00,PyWeather,2013-01-02 05:35:00,
2013-01-01 19:36:00,70.3,67.5,29.97,NE,35,19.0,29.0,91,0.00,,,0.00,PyWeather,2013-01-02 05:36:00,
2013-01-01 19:37:00,70.4,67.6,29.97,NNE,28,18.0,29.0,91,0.00,,,0.00,PyWeather,2013-01-02 05:37:00,
2013-01-01 19:38:00,70.8,67.7,29.96,NE,44,17.0,28.0,90,0.00,,,0.00,PyWeather,2013-01-02 05:38:00,
2013-01-01 19:39:00,70.4,67.6,29.97,NE,36,18.0,29.0,91,0.00,,,0.00,PyWeather,2013-01-02 05:39:00,
2013-01-01 19:40:00,70.4,67.6,29.97,NNE,28,18.0,29.0,91,0.00,,,0.00,PyWeather,2013-01-02 05:40:00,
2013-01-01 19:42:00,70.3,67.5,29.96,NNE,21,18.0,29.0,91,0.00,,,0.00,PyWeather,2013-01-02 05:42:00,
2013-01-01 19:43:00,70.4,67.3,29.97,NE,49,19.0,29.0,90,0.00,,,0.00,PyWeather,2013-01-02 05:43:00,
2013-01-01 19:44:00,70.3,67.5,29.97,NNE,30,19.0,29.0,91,0.00,,,0.00,PyWeather,2013-01-02 05:44:00,
2013-01-01 19:45:00,70.3,67.5,29.97,NNE,31,18.0,29.0,91,0.00,,,0.00,PyWeather,2013-01-02 05:45:00,
2013-01-01 19:46:00,70.3,67.5,29.97,NE,50,18.0,28.0,91,0.00,,,0.00,PyWeather,2013-01-02 05:46:00,
2013-01-01 19:48:00,70.3,67.5,29.97,NE,34,20.0,29.0,91,0.00,,,0.00,PyWeather,2013-01-02 05:48:00,
2013-01-01 19:50:00,70.3,67.5,29.98,NE,42,18.0,28.0,91,0.00,,,0.00,PyWeather,2013-01-02 05:50:00,
2013-01-01 19:51:00,70.3,67.5,29.98,NNE,27,18.0,28.0,91,0.00,,,0.00,PyWeather,2013-01-02 05:51:00,
2013-01-01 19:52:00,70.3,67.5,29.98,NE,46,17.0,28.0,91,0.00,,,0.00,PyWeather,2013-01-02 05:52:00,
2013-01-01 19:53:00,70.4,67.6,29.97,NNE,19,18.0,29.0,91,0.00,,,0.00,PyWeather,2013-01-02 05:53:00,
2013-01-01 19:54:00,70.1,67.3,29.98,NE,56,17.0,28.0,91,0.00,,,0.00,PyWeather,2013-01-02 05:54:00,
2013-01-01 19:55:00,70.1,67.3,29.98,NE,40,17.0,28.0,91,0.00,,,0.00,PyWeather,2013-01-02 05:55:00,
2013-01-01 19:56:00,70.1,67.3,29.98,NE,47,16.0,24.0,91,0.00,,,0.00,PyWeather,2013-01-02 05:56:00,
2013-01-01 19:58:00,70.3,67.5,29.97,NNE,30,18.0,29.0,91,0.00,,,0.00,PyWeather,2013-01-02 05:58:00,
2013-01-01 19:59:00,70.1,67.6,29.98,NE,35,15.0,24.0,92,0.00,,,0.00,PyWeather,2013-01-02 05:59:00,
2013-01-01 20:00:00,70.1,67.6,29.98,NE,40,15.0,24.0,92,0.00,,,0.00,PyWeather,2013-01-02 06:00:00,
2013-01-01 20:01:00,70.1,67.6,29.98,NE,46,15.0,24.0,92,0.00,,,0.00,PyWeather,2013-01-02 06:01:00,
2013-01-01 20:02:00,70.1,67.6,29.98,NE,42,15.0,24.0,92,0.00,,,0.00,PyWeather,2013-01-02 06:02:00,
2013-01-01 20:03:00,70.3,67.5,29.98,NNE,30,18.0,28.0,91,0.00,,,0.00,PyWeather,2013-01-02 06:03:00,
2013-01-01 20:05:00,70.1,67.6,29.97,NNE,30,15.0,24.0,92,0.00,,,0.00,PyWeather,2013-01-02 06:05:00,
2013-01-01 20:08:00,70.1,67.3,29.98,NE,54,17.0,28.0,91,0.00,,,0.00,PyWeather,2013-01-02 06:08:00,
2013-01-01 20:14:00,70.1,67.6,29.98,NE,37,15.0,24.0,92,0.00,,,0.00,PyWeather,2013-01-02 06:14:00,
2013-01-01 20:19:00,70.1,67.6,29.98,NNE,20,15.0,24.0,92,0.00,,,0.00,PyWeather,2013-01-02 06:19:00,
2013-01-01 20:24:00,70.0,67.5,29.98,NE,36,17.0,24.0,92,0.00,,,0.00,PyWeather,2013-01-02 06:24:00,
2013-01-01 20:29:00,70.0,67.5,29.98,NE,40,17.0,25.0,92,0.00,,,0.00,PyWeather,2013-01-02 06:29:00,
2013-01-01 20:34:00,69.9,67.4,29.99,NE,51,18.0,25.0,92,0.00,,,0.00,PyWeather,2013-01-02 06:34:00,
2013-01-01 20:39:00,69.7,67.2,29.99,NNE,28,17.0,26.0,92,0.00,,,0.00,PyWeather,2013-01-02 06:39:00,
2013-01-01 20:44:00,69.7,67.2,29.99,NNE,32,16.0,26.0,92,0.00,,,0.00,PyWeather,2013-01-02 06:44:00,
2013-01-01 20:49:00,69.7,67.2,29.99,NE,48,15.0,23.0,92,0.00,,,0.00,PyWeather,2013-01-02 06:49:00,
2013-01-01 20:54:00,69.7,67.2,29.99,NE,34,16.0,23.0,92,0.00,,,0.00,PyWeather,2013-01-02 06:54:00,
2013-01-01 20:59:00,69.7,67.2,29.99,NE,35,16.0,23.0,92,0.00,,,0.00,PyWeather,2013-01-02 06:59:00,
2013-01-01 21:04:00,69.6,67.1,29.99,ENE,61,16.0,23.0,92,0.00,,,0.00,PyWeather,2013-01-02 07:04:00,
2013-01-01 21:09:00,69.6,67.1,29.99,NE,36,16.0,24.0,92,0.00,,,0.00,PyWeather,2013-01-02 07:09:00,
2013-01-01 21:14:00,69.6,67.1,29.99,NNE,23,16.0,24.0,92,0.00,,,0.00,PyWeather,2013-01-02 07:14:00,
2013-01-01 21:20:00,69.6,67.1,29.99,NE,35,16.0,24.0,92,0.00,,,0.00,PyWeather,2013-01-02 07:20:00,
2013-01-01 21:25:00,69.5,67.0,29.99,ENE,62,17.0,24.0,92,0.00,,,0.00,PyWeather,2013-01-02 07:25:00,
2013-01-01 21:30:00,69.5,66.7,29.99,NE,41,17.0,28.0,91,0.00,,,0.00,PyWeather,2013-01-02 07:30:00,
2013-01-01 21:35:00,69.5,66.7,29.99,NE,46,17.0,28.0,91,0.00,,,0.00,PyWeather,2013-01-02 07:35:00,
2013-01-01 21:41:00,69.6,66.8,29.99,NE,49,17.0,27.0,91,0.00,,,0.00,PyWeather,2013-01-02 07:41:00,
2013-01-01 21:46:00,69.6,66.8,29.99,NNE,33,16.0,27.0,91,0.00,,,0.00,PyWeather,2013-01-02 07:46:00,
2013-01-01 21:51:00,69.5,66.7,29.99,NE,36,17.0,24.0,91,0.00,,,0.00,PyWeather,2013-01-02 07:51:00,
2013-01-01 21:56:00,69.3,66.8,29.99,NE,52,18.0,24.0,92,0.00,,,0.00,PyWeather,2013-01-02 07:56:00,
2013-01-01 22:02:00,69.2,66.7,29.98,NE,44,18.0,-999.0,92,0.00,,,0.00,PyWeather,2013-01-02 08:02:00,
2013-01-01 22:07:00,69.2,66.7,29.98,NE,42,18.0,-999.0,92,0.00,,,0.00,PyWeather,2013-01-02 08:07:00,
2013-01-01 22:12:00,69.1,66.6,29.98,NNE,26,18.0,26.0,92,0.00,,,0.00,PyWeather,2013-01-02 08:12:00,
2013-01-01 22:17:00,69.2,66.7,29.98,NNE,26,19.0,26.0,92,0.00,,,0.00,PyWeather,2013-01-02 08:17:00,
2013-01-01 22:23:00,69.3,66.8,29.98,NE,36,18.0,26.0,92,0.00,,,0.00,PyWeather,2013-01-02 08:23:00,
2013-01-01 22:28:00,69.2,66.7,29.98,NE,38,18.0,26.0,92,0.00,,,0.00,PyWeather,2013-01-02 08:28:00,
2013-01-01 22:33:00,69.1,66.6,29.98,NE,39,19.0,29.0,92,0.00,,,0.00,PyWeather,2013-01-02 08:33:00,
2013-01-01 22:38:00,69.0,66.6,29.98,NE,47,18.0,29.0,92,0.00,,,0.00,PyWeather,2013-01-02 08:38:00,
2013-01-01 22:44:00,69.1,66.6,29.98,NE,36,17.0,29.0,92,0.00,,,0.00,PyWeather,2013-01-02 08:44:00,
2013-01-01 22:49:00,69.2,66.7,29.98,NE,35,18.0,27.0,92,0.00,,,0.00,PyWeather,2013-01-02 08:49:00,
2013-01-01 22:51:00,69.2,67.1,29.98,NE,46,17.0,26.0,93,0.00,,,0.00,PyWeather,2013-01-02 08:51:00,
2013-01-01 22:52:00,69.2,67.1,29.98,NNE,24,17.0,26.0,93,0.00,,,0.00,PyWeather,2013-01-02 08:52:00,
2013-01-01 22:53:00,69.2,66.7,29.98,NE,38,17.0,26.0,92,0.00,,,0.00,PyWeather,2013-01-02 08:53:00,
2013-01-01 22:54:00,69.2,66.7,29.98,NE,41,17.0,27.0,92,0.00,,,0.00,PyWeather,2013-01-02 08:54:00,
2013-01-01 22:55:00,69.2,67.1,29.98,NNE,30,17.0,26.0,93,0.00,,,0.00,PyWeather,2013-01-02 08:55:00,
2013-01-01 22:56:00,69.2,67.1,29.97,NE,50,17.0,26.0,93,0.00,,,0.01,PyWeather,2013-01-02 08:56:00,
2013-01-01 22:57:00,69.2,67.1,29.98,NE,42,18.0,26.0,93,0.00,,,0.01,PyWeather,2013-01-02 08:57:00,
2013-01-01 22:58:00,69.2,67.1,29.98,NE,49,18.0,26.0,93,0.00,,,0.01,PyWeather,2013-01-02 08:58:00,
2013-01-01 22:59:00,69.2,66.7,29.98,NE,42,17.0,26.0,92,0.00,,,0.00,PyWeather,2013-01-02 08:59:00,
2013-01-01 23:01:00,69.2,67.1,29.98,NE,36,18.0,26.0,93,0.00,,,0.01,PyWeather,2013-01-02 09:01:00,
2013-01-01 23:02:00,69.2,67.1,29.98,NE,42,17.0,26.0,93,0.00,,,0.01,PyWeather,2013-01-02 09:02:00,
2013-01-01 23:03:00,69.1,67.0,29.98,NNE,26,17.0,26.0,93,0.00,,,0.01,PyWeather,2013-01-02 09:03:00,
2013-01-01 23:04:00,69.2,67.1,29.98,NE,42,17.0,26.0,93,0.00,,,0.00,PyWeather,2013-01-02 09:04:00,
2013-01-01 23:07:00,69.1,67.0,29.98,NNE,26,17.0,26.0,93,0.00,,,0.01,PyWeather,2013-01-02 09:07:00,
2013-01-01 23:08:00,69.1,67.0,29.98,ENE,59,17.0,26.0,93,0.00,,,0.01,PyWeather,2013-01-02 09:08:00,
2013-01-01 23:09:00,69.2,67.1,29.97,NNE,31,17.0,26.0,93,0.00,,,0.01,PyWeather,2013-01-02 09:09:00,
2013-01-01 23:10:00,69.1,67.0,29.98,NE,42,17.0,26.0,93,0.00,,,0.01,PyWeather,2013-01-02 09:10:00,
2013-01-01 23:13:00,69.1,67.0,29.98,NE,35,17.0,26.0,93,0.00,,,0.01,PyWeather,2013-01-02 09:13:00,
2013-01-01 23:14:00,69.2,67.1,29.98,NNE,28,18.0,26.0,93,0.00,,,0.01,PyWeather,2013-01-02 09:14:00,
2013-01-01 23:19:00,69.1,67.0,29.98,NE,40,17.0,26.0,93,0.00,,,0.01,PyWeather,2013-01-02 09:19:00,
2013-01-01 23:24:00,69.1,67.0,29.98,NE,37,17.0,26.0,93,0.00,,,0.01,PyWeather,2013-01-02 09:24:00,
2013-01-01 23:29:00,69.1,67.0,29.97,NE,40,17.0,-999.0,93,0.00,,,0.01,PyWeather,2013-01-02 09:29:00,
2013-01-01 23:33:00,69.1,67.0,29.96,NE,36,17.0,23.0,93,0.00,,,0.01,PyWeather,2013-01-02 09:33:00,
2013-01-01 23:34:00,69.2,67.1,29.97,NNE,24,17.0,-999.0,93,0.00,,,0.01,PyWeather,2013-01-02 09:34:00,
2013-01-01 23:35:00,69.0,66.9,29.96,NNE,30,17.0,23.0,93,0.00,,,0.01,PyWeather,2013-01-02 09:35:00,
2013-01-01 23:36:00,69.1,67.0,29.96,NNE,30,17.0,26.0,93,0.00,,,0.01,PyWeather,2013-01-02 09:36:00,
2013-01-01 23:37:00,69.1,67.0,29.96,NE,41,18.0,26.0,93,0.00,,,0.01,PyWeather,2013-01-02 09:37:00,
2013-01-01 23:38:00,69.0,66.9,29.96,NNE,32,18.0,26.0,93,0.00,,,0.01,PyWeather,2013-01-02 09:38:00,
2013-01-01 23:39:00,69.2,67.1,29.97,NE,42,15.0,23.0,93,0.00,,,0.01,PyWeather,2013-01-02 09:39:00,
2013-01-01 23:40:00,69.0,66.9,29.96,NE,42,18.0,26.0,93,0.00,,,0.01,PyWeather,2013-01-02 09:40:00,
2013-01-01 23:41:00,69.0,66.9,29.96,NE,36,17.0,26.0,93,0.00,,,0.01,PyWeather,2013-01-02 09:41:00,
2013-01-01 23:42:00,69.0,66.9,29.96,NE,34,17.0,26.0,93,0.00,,,0.01,PyWeather,2013-01-02 09:42:00,
2013-01-01 23:44:00,69.1,67.0,29.97,NNE,28,15.0,23.0,93,0.00,,,0.01,PyWeather,2013-01-02 09:44:00,
2013-01-01 23:46:00,69.0,66.9,29.97,NNE,31,17.0,26.0,93,0.00,,,0.01,PyWeather,2013-01-02 09:46:00,
2013-01-01 23:47:00,69.0,66.9,29.97,NE,43,17.0,26.0,93,0.00,,,0.01,PyWeather,2013-01-02 09:47:00,
2013-01-01 23:49:00,69.1,67.0,29.96,NNE,31,17.0,26.0,93,0.00,,,0.01,PyWeather,2013-01-02 09:49:00,
2013-01-01 23:54:00,69.0,66.9,29.96,NNE,20,17.0,26.0,93,0.00,,,0.01,PyWeather,2013-01-02 09:54:00,
2013-01-01 23:59:00,69.0,66.9,29.97,NNE,16,17.0,26.0,93,0.00,,,0.01,PyWeather,2013-01-02 09:59:00,